Observation data for Palo Duro Canyon State Park Rim on 11/19/2019      Previous  Date       Current Mesonet Observations  Soil Data  Daily Summary Page  Observations in Plain Language
KPD1 190600Z 18003KT 11/M01 A3002 RMK A01 T01141005  RH  044%=      5-min Rain = 0
KPD1 190601Z 18003KT 11/M01 A3002 RMK A01 T01131006  RH  044%=      5-min Rain = 0
KPD1 190602Z 19003KT 11/M01 A3002 RMK A01 T01121006  RH  044%=      5-min Rain = 0
KPD1 190603Z 19003KT 11/M01 A3002 RMK A01 T01111007  RH  044%=      5-min Rain = 0
KPD1 190604Z 20003KT 11/M01 A3002 RMK A01 T01101007  RH  044%=      5-min Rain = 0
KPD1 190605Z 20003KT 11/M01 A3002 RMK A01 T01091007  RH  045%=      5-min Rain = 0
KPD1 190606Z 21003KT 11/M01 A3002 RMK A01 T01081007  RH  045%=      5-min Rain = 0
KPD1 190607Z 20003KT 11/M01 A3002 RMK A01 T01071007  RH  045%=      5-min Rain = 0
KPD1 190608Z 19003KT 11/M01 A3002 RMK A01 T01071007  RH  045%=      5-min Rain = 0
KPD1 190609Z 19003KT 11/M01 A3002 RMK A01 T01071007  RH  045%=      5-min Rain = 0
KPD1 190610Z 18003KT 11/M01 A3002 RMK A01 T01061007  RH  045%=      5-min Rain = 0
KPD1 190611Z 18004KT 11/M01 A3002 RMK A01 T01061007  RH  046%=      5-min Rain = 0
KPD1 190612Z 19004KT 11/M01 A3002 RMK A01 T01051007  RH  046%=      5-min Rain = 0
KPD1 190613Z 19003KT 11/M01 A3002 RMK A01 T01051007  RH  046%=      5-min Rain = 0
KPD1 190614Z 18003KT 10/M01 A3002 RMK A01 T01041007  RH  046%=      5-min Rain = 0
KPD1 190615Z 17003KT 10/M01 A3002 RMK A01 T01031008  RH  046%=      5-min Rain = 0
KPD1 190616Z 16003KT 10/M01 A3001 RMK A01 T01031007  RH  046%=      5-min Rain = 0
KPD1 190617Z 15002KT 10/M01 A3001 RMK A01 T01021007  RH  047%=      5-min Rain = 0
KPD1 190618Z 14003KT 10/M01 A3001 RMK A01 T01011008  RH  047%=      5-min Rain = 0
KPD1 190619Z 14002KT 10/M01 A3001 RMK A01 T01001008  RH  047%=      5-min Rain = 0
KPD1 190620Z 13003KT 10/M01 A3001 RMK A01 T00991007  RH  047%=      5-min Rain = 0
KPD1 190621Z 12003KT 10/M01 A3001 RMK A01 T00991007  RH  048%=      5-min Rain = 0
KPD1 190622Z 12003KT 10/M01 A3001 RMK A01 T00981007  RH  048%=      5-min Rain = 0
KPD1 190623Z 13003KT 10/M01 A3001 RMK A01 T00981007  RH  048%=      5-min Rain = 0
KPD1 190624Z 13003KT 10/M01 A3001 RMK A01 T00981006  RH  048%=      5-min Rain = 0
KPD1 190625Z 14003KT 10/M01 A3001 RMK A01 T00981006  RH  048%=      5-min Rain = 0
KPD1 190626Z 14003KT 10/M01 A3001 RMK A01 T00971007  RH  049%=      5-min Rain = 0
KPD1 190627Z 15003KT 10/M01 A3001 RMK A01 T00971006  RH  049%=      5-min Rain = 0
KPD1 190628Z 16003KT 10/M01 A3001 RMK A01 T00961006  RH  049%=      5-min Rain = 0
KPD1 190629Z 17003KT 10/M01 A3001 RMK A01 T00971006  RH  049%=      5-min Rain = 0
KPD1 190630Z 17004KT 10/M01 A3001 RMK A01 T00961006  RH  049%=      5-min Rain = 0
KPD1 190631Z 18004KT 10/M01 A3001 RMK A01 T00961005  RH  049%=      5-min Rain = 0
KPD1 190632Z 18004KT 10/M01 A3001 RMK A01 T00961006  RH  049%=      5-min Rain = 0
KPD1 190633Z 18004KT 10/M01 A3001 RMK A01 T00961006  RH  049%=      5-min Rain = 0
KPD1 190634Z 18004KT 10/M01 A3001 RMK A01 T00951006  RH  049%=      5-min Rain = 0
KPD1 190635Z 18004KT 10/M01 A3001 RMK A01 T00951006  RH  049%=      5-min Rain = 0
KPD1 190636Z 19003KT 10/M01 A3001 RMK A01 T00961006  RH  049%=      5-min Rain = 0
KPD1 190637Z 19003KT 10/M01 A3001 RMK A01 T00961005  RH  049%=      5-min Rain = 0
KPD1 190638Z 19003KT 10/M01 A3001 RMK A01 T00971006  RH  049%=      5-min Rain = 0
KPD1 190639Z 19003KT 10/M01 A3001 RMK A01 T00971006  RH  049%=      5-min Rain = 0
KPD1 190640Z 18003KT 10/M01 A3001 RMK A01 T00981005  RH  049%=      5-min Rain = 0
KPD1 190641Z 18003KT 10/M01 A3001 RMK A01 T00981006  RH  048%=      5-min Rain = 0
KPD1 190642Z 17002KT 10/M01 A3001 RMK A01 T00971006  RH  048%=      5-min Rain = 0
KPD1 190643Z 16002KT 10/M01 A3001 RMK A01 T00971006  RH  049%=      5-min Rain = 0
KPD1 190644Z 15002KT 10/M01 A30 RMK A01 T00961007  RH  049%=      5-min Rain = 0
KPD1 190645Z 15002KT 10/M01 A30 RMK A01 T00961007  RH  048%=      5-min Rain = 0
KPD1 190646Z 15002KT 10/M01 A30 RMK A01 T00961008  RH  048%=      5-min Rain = 0
KPD1 190647Z 14002KT 10/M01 A30 RMK A01 T00961008  RH  048%=      5-min Rain = 0
KPD1 190648Z 14002KT 10/M01 A30 RMK A01 T00961008  RH  048%=      5-min Rain = 0
KPD1 190649Z 14002KT 10/M01 A30 RMK A01 T00951009  RH  048%=      5-min Rain = 0
KPD1 190650Z 14002KT 10/M01 A30 RMK A01 T00951009  RH  048%=      5-min Rain = 0
KPD1 190651Z 13001KT 10/M01 A30 RMK A01 T00951009  RH  048%=      5-min Rain = 0
KPD1 190652Z 13001KT 10/M01 A30 RMK A01 T00951009  RH  048%=      5-min Rain = 0
KPD1 190653Z 12001KT 10/M01 A30 RMK A01 T00961008  RH  048%=      5-min Rain = 0
KPD1 190654Z 11001KT 10/M01 A30 RMK A01 T00971008  RH  048%=      5-min Rain = 0
KPD1 190655Z 11001KT 10/M01 A30 RMK A01 T00971009  RH  048%=      5-min Rain = 0
KPD1 190656Z 11001KT 10/M01 A30 RMK A01 T00981009  RH  047%=      5-min Rain = 0
KPD1 190657Z 12002KT 10/M01 A30 RMK A01 T00981009  RH  047%=      5-min Rain = 0
KPD1 190658Z 13003KT 10/M01 A30 RMK A01 T00981009  RH  047%=      5-min Rain = 0
KPD1 190659Z 14003KT 10/M01 A30 RMK A01 T00981009  RH  047%=      5-min Rain = 0
KPD1 190700Z 16003KT 10/M01 A30 RMK A01 T00971010  RH  048%=      5-min Rain = 0
KPD1 190701Z 17003KT 10/M01 A30 RMK A01 T00951010  RH  048%=      5-min Rain = 0
KPD1 190702Z 19003KT 10/M01 A30 RMK A01 T00951010  RH  048%=      5-min Rain = 0
KPD1 190703Z 20004KT 10/M01 A30 RMK A01 T00951009  RH  048%=      5-min Rain = 0
KPD1 190704Z 20004KT 10/M01 A30 RMK A01 T00951009  RH  048%=      5-min Rain = 0
KPD1 190705Z 21005KT 10/M01 A30 RMK A01 T00951010  RH  048%=      5-min Rain = 0
KPD1 190706Z 21005KT 10/M01 A30 RMK A01 T00951010  RH  048%=      5-min Rain = 0
KPD1 190707Z 22005KT 10/M01 A3001 RMK A01 T00951009  RH  048%=      5-min Rain = 0
KPD1 190708Z 22005KT 10/M01 A3001 RMK A01 T00951008  RH  049%=      5-min Rain = 0
KPD1 190709Z 23006KT 09/M01 A3001 RMK A01 T00941008  RH  049%=      5-min Rain = 0
KPD1 190710Z 23006KT 09/M01 A3001 RMK A01 T00921009  RH  049%=      5-min Rain = 0
KPD1 190711Z 23006KT 09/M01 A3001 RMK A01 T00921009  RH  049%=      5-min Rain = 0
KPD1 190712Z 24006KT 09/M01 A3001 RMK A01 T00911009  RH  050%=      5-min Rain = 0
KPD1 190713Z 24006KT 09/M01 A3001 RMK A01 T00911009  RH  050%=      5-min Rain = 0
KPD1 190714Z 24006KT 09/M01 A3001 RMK A01 T00911009  RH  050%=      5-min Rain = 0
KPD1 190715Z 25005KT 09/M01 A3001 RMK A01 T00911009  RH  050%=      5-min Rain = 0
KPD1 190716Z 25005KT 09/M01 A3001 RMK A01 T00911009  RH  049%=      5-min Rain = 0
KPD1 190717Z 24005KT 09/M01 A3001 RMK A01 T00911009  RH  050%=      5-min Rain = 0
KPD1 190718Z 23004KT 09/M01 A3001 RMK A01 T00901011  RH  049%=      5-min Rain = 0
KPD1 190719Z 24004KT 09/M01 A3001 RMK A01 T00911012  RH  049%=      5-min Rain = 0
KPD1 190720Z 23004KT 09/M01 A3001 RMK A01 T00911013  RH  048%=      5-min Rain = 0
KPD1 190721Z 23004KT 09/M01 A3001 RMK A01 T00911013  RH  048%=      5-min Rain = 0
KPD1 190722Z 23004KT 09/M01 A3001 RMK A01 T00921014  RH  048%=      5-min Rain = 0
KPD1 190723Z 22004KT 09/M02 A3001 RMK A01 T00921015  RH  047%=      5-min Rain = 0
KPD1 190724Z 22003KT 09/M02 A3001 RMK A01 T00921015  RH  047%=      5-min Rain = 0
KPD1 190725Z 22003KT 09/M02 A3001 RMK A01 T00911016  RH  047%=      5-min Rain = 0
KPD1 190726Z 22003KT 09/M02 A3001 RMK A01 T00911016  RH  047%=      5-min Rain = 0
KPD1 190727Z 21003KT 09/M02 A3001 RMK A01 T00921016  RH  047%=      5-min Rain = 0
KPD1 190728Z 20003KT 09/M02 A3001 RMK A01 T00911017  RH  047%=      5-min Rain = 0
KPD1 190729Z 20003KT 09/M02 A3001 RMK A01 T00921017  RH  047%=      5-min Rain = 0
KPD1 190730Z 20002KT 09/M02 A3001 RMK A01 T00921017  RH  047%=      5-min Rain = 0
KPD1 190731Z 20002KT 09/M02 A3001 RMK A01 T00911017  RH  047%=      5-min Rain = 0
KPD1 190732Z 21002KT 09/M02 A3001 RMK A01 T00911017  RH  047%=      5-min Rain = 0
KPD1 190733Z 21001KT 09/M02 A3001 RMK A01 T00911017  RH  047%=      5-min Rain = 0
KPD1 190734Z 21001KT 09/M02 A3001 RMK A01 T00911018  RH  047%=      5-min Rain = 0
KPD1 190735Z 21001KT 09/M02 A30 RMK A01 T00921018  RH  046%=      5-min Rain = 0
KPD1 190736Z 21002KT 09/M02 A30 RMK A01 T00921018  RH  046%=      5-min Rain = 0
KPD1 190737Z 22002KT 09/M02 A30 RMK A01 T00931018  RH  046%=      5-min Rain = 0
KPD1 190738Z 22002KT 09/M02 A30 RMK A01 T00941018  RH  046%=      5-min Rain = 0
KPD1 190739Z 22002KT 09/M02 A30 RMK A01 T00941018  RH  045%=      5-min Rain = 0
KPD1 190740Z 22002KT 09/M02 A30 RMK A01 T00941019  RH  045%=      5-min Rain = 0
KPD1 190741Z 22002KT 09/M02 A30 RMK A01 T00941019  RH  045%=      5-min Rain = 0
KPD1 190742Z 21002KT 09/M02 A30 RMK A01 T00931019  RH  045%=      5-min Rain = 0
KPD1 190743Z 20002KT 09/M02 A30 RMK A01 T00931019  RH  045%=      5-min Rain = 0
KPD1 190744Z 19002KT 09/M02 A30 RMK A01 T00931019  RH  045%=      5-min Rain = 0
KPD1 190745Z 19002KT 09/M02 A30 RMK A01 T00931020  RH  045%=      5-min Rain = 0
KPD1 190746Z 19002KT 09/M02 A30 RMK A01 T00931020  RH  045%=      5-min Rain = 0
KPD1 190747Z 20002KT 09/M02 A30 RMK A01 T00921021  RH  045%=      5-min Rain = 0
KPD1 190748Z 20002KT 09/M02 A30 RMK A01 T00931021  RH  045%=      5-min Rain = 0
KPD1 190749Z 21002KT 09/M02 A30 RMK A01 T00941021  RH  045%=      5-min Rain = 0
KPD1 190750Z 20002KT 10/M02 A30 RMK A01 T00951021  RH  044%=      5-min Rain = 0
KPD1 190751Z 21002KT 10/M02 A30 RMK A01 T00961021  RH  044%=      5-min Rain = 0
KPD1 190752Z 22002KT 10/M02 A30 RMK A01 T00971021  RH  044%=      5-min Rain = 0
KPD1 190753Z 22003KT 10/M02 A30 RMK A01 T00971022  RH  043%=      5-min Rain = 0
KPD1 190754Z 22003KT 10/M02 A30 RMK A01 T00971022  RH  043%=      5-min Rain = 0
KPD1 190755Z 22003KT 10/M02 A30 RMK A01 T00961022  RH  043%=      5-min Rain = 0
KPD1 190756Z 22003KT 10/M02 A30 RMK A01 T00961022  RH  044%=      5-min Rain = 0
KPD1 190757Z 22002KT 10/M02 A30 RMK A01 T00951022  RH  044%=      5-min Rain = 0
KPD1 190758Z 22002KT 10/M02 A30 RMK A01 T00951023  RH  044%=      5-min Rain = 0
KPD1 190759Z 22002KT 10/M02 A30 RMK A01 T00951023  RH  044%=      5-min Rain = 0
KPD1 190800Z 22002KT 10/M02 A30 RMK A01 T00951023  RH  043%=      5-min Rain = 0
KPD1 190801Z 22002KT 10/M02 A30 RMK A01 T00951024  RH  043%=      5-min Rain = 0
KPD1 190802Z 22002KT 10/M02 A30 RMK A01 T00951024  RH  043%=      5-min Rain = 0
KPD1 190803Z 22003KT 10/M02 A30 RMK A01 T00951024  RH  043%=      5-min Rain = 0
KPD1 190804Z 22003KT 09/M03 A3001 RMK A01 T00941025  RH  043%=      5-min Rain = 0
KPD1 190805Z 22003KT 09/M03 A3001 RMK A01 T00941026  RH  043%=      5-min Rain = 0
KPD1 190806Z 22004KT 10/M03 A3001 RMK A01 T00951026  RH  043%=      5-min Rain = 0
KPD1 190807Z 22004KT 10/M03 A3001 RMK A01 T00951026  RH  042%=      5-min Rain = 0
KPD1 190808Z 22004KT 09/M03 A3001 RMK A01 T00941027  RH  042%=      5-min Rain = 0
KPD1 190809Z 22004KT 09/M03 A3001 RMK A01 T00941028  RH  042%=      5-min Rain = 0
KPD1 190810Z 21004KT 10/M03 A3001 RMK A01 T00951028  RH  042%=      5-min Rain = 0
KPD1 190811Z 21004KT 10/M03 A3001 RMK A01 T00961029  RH  042%=      5-min Rain = 0
KPD1 190812Z 21003KT 10/M03 A3001 RMK A01 T00971029  RH  041%=      5-min Rain = 0
KPD1 190813Z 21003KT 10/M03 A3001 RMK A01 T00981029  RH  041%=      5-min Rain = 0
KPD1 190814Z 21003KT 10/M03 A3001 RMK A01 T00991029  RH  041%=      5-min Rain = 0
KPD1 190815Z 22003KT 10/M03 A3001 RMK A01 T00991029  RH  040%=      5-min Rain = 0
KPD1 190816Z 22002KT 10/M03 A3001 RMK A01 T00991029  RH  040%=      5-min Rain = 0
KPD1 190817Z 23003KT 10/M03 A3001 RMK A01 T00991030  RH  040%=      5-min Rain = 0
KPD1 190818Z 23003KT 10/M03 A3001 RMK A01 T00991030  RH  040%=      5-min Rain = 0
KPD1 190819Z 23003KT 10/M03 A3001 RMK A01 T00991030  RH  040%=      5-min Rain = 0
KPD1 190820Z 23003KT 10/M03 A3001 RMK A01 T00981030  RH  041%=      5-min Rain = 0
KPD1 190821Z 23003KT 10/M03 A3001 RMK A01 T00981029  RH  041%=      5-min Rain = 0
KPD1 190822Z 23003KT 10/M03 A3001 RMK A01 T00971030  RH  041%=      5-min Rain = 0
KPD1 190823Z 23003KT 10/M03 A3001 RMK A01 T00951030  RH  041%=      5-min Rain = 0
KPD1 190824Z 23003KT 09/M03 A3001 RMK A01 T00941030  RH  042%=      5-min Rain = 0
KPD1 190825Z 23003KT 09/M03 A3001 RMK A01 T00931030  RH  042%=      5-min Rain = 0
KPD1 190826Z 23003KT 09/M03 A3001 RMK A01 T00921029  RH  042%=      5-min Rain = 0
KPD1 190827Z 24003KT 09/M03 A3001 RMK A01 T00921029  RH  043%=      5-min Rain = 0
KPD1 190828Z 23003KT 09/M03 A3001 RMK A01 T00911029  RH  043%=      5-min Rain = 0
KPD1 190829Z 24003KT 09/M03 A3001 RMK A01 T00911029  RH  043%=      5-min Rain = 0
KPD1 190830Z 24003KT 09/M03 A3001 RMK A01 T00901030  RH  043%=      5-min Rain = 0
KPD1 190831Z 24003KT 09/M03 A3001 RMK A01 T00891030  RH  043%=      5-min Rain = 0
KPD1 190832Z 24003KT 09/M03 A3001 RMK A01 T00891030  RH  043%=      5-min Rain = 0
KPD1 190833Z 24002KT 09/M03 A3001 RMK A01 T00881030  RH  044%=      5-min Rain = 0
KPD1 190834Z 23002KT 09/M03 A3001 RMK A01 T00871030  RH  044%=      5-min Rain = 0
KPD1 190835Z 23003KT 09/M03 A3001 RMK A01 T00871030  RH  044%=      5-min Rain = 0
KPD1 190836Z 23003KT 09/M03 A3001 RMK A01 T00871030  RH  044%=      5-min Rain = 0
KPD1 190837Z 23003KT 09/M03 A3001 RMK A01 T00871030  RH  044%=      5-min Rain = 0
KPD1 190838Z 23003KT 09/M03 A3002 RMK A01 T00871030  RH  044%=      5-min Rain = 0
KPD1 190839Z 23004KT 09/M03 A3002 RMK A01 T00881030  RH  044%=      5-min Rain = 0
KPD1 190840Z 23004KT 09/M03 A3001 RMK A01 T00871030  RH  044%=      5-min Rain = 0
KPD1 190841Z 24004KT 09/M03 A3002 RMK A01 T00871030  RH  044%=      5-min Rain = 0
KPD1 190842Z 24004KT 09/M03 A3002 RMK A01 T00861030  RH  044%=      5-min Rain = 0
KPD1 190843Z 24005KT 09/M03 A3002 RMK A01 T00851030  RH  044%=      5-min Rain = 0
KPD1 190844Z 24005KT 08/M03 A3002 RMK A01 T00841030  RH  045%=      5-min Rain = 0
KPD1 190845Z 23006KT 08/M03 A3002 RMK A01 T00821030  RH  045%=      5-min Rain = 0
KPD1 190846Z 23006KT 08/M03 A3002 RMK A01 T00801030  RH  046%=      5-min Rain = 0
KPD1 190847Z 23006KT 08/M03 A3002 RMK A01 T00791030  RH  046%=      5-min Rain = 0
KPD1 190848Z 23006KT 08/M03 A3002 RMK A01 T00781030  RH  047%=      5-min Rain = 0
KPD1 190849Z 23006KT 08/M03 A3002 RMK A01 T00771029  RH  047%=      5-min Rain = 0
KPD1 190850Z 24006KT 08/M03 A3002 RMK A01 T00761028  RH  048%=      5-min Rain = 0
KPD1 190851Z 24006KT 08/M03 A3002 RMK A01 T00751027  RH  048%=      5-min Rain = 0
KPD1 190852Z 24006KT 07/M03 A3001 RMK A01 T00741027  RH  049%=      5-min Rain = 0
KPD1 190853Z 24005KT 07/M03 A3001 RMK A01 T00731026  RH  049%=      5-min Rain = 0
KPD1 190854Z 24005KT 07/M03 A3001 RMK A01 T00721026  RH  050%=      5-min Rain = 0
KPD1 190855Z 24004KT 07/M03 A3001 RMK A01 T00711025  RH  050%=      5-min Rain = 0
KPD1 190856Z 23004KT 07/M03 A3001 RMK A01 T00711026  RH  050%=      5-min Rain = 0
KPD1 190857Z 22004KT 07/M03 A3001 RMK A01 T00701025  RH  051%=      5-min Rain = 0
KPD1 190858Z 22004KT 07/M03 A3001 RMK A01 T00711025  RH  051%=      5-min Rain = 0
KPD1 190859Z 22004KT 07/M03 A3001 RMK A01 T00711025  RH  051%=      5-min Rain = 0
KPD1 190900Z 22003KT 07/M03 A3001 RMK A01 T00711025  RH  050%=      5-min Rain = 0
KPD1 190901Z 21003KT 07/M03 A3001 RMK A01 T00721025  RH  050%=      5-min Rain = 0
KPD1 190902Z 20003KT 07/M03 A3001 RMK A01 T00721026  RH  050%=      5-min Rain = 0
KPD1 190903Z 20003KT 07/M03 A3001 RMK A01 T00711026  RH  050%=      5-min Rain = 0
KPD1 190904Z 20003KT 07/M03 A3001 RMK A01 T00711026  RH  050%=      5-min Rain = 0
KPD1 190905Z 21003KT 07/M03 A3001 RMK A01 T00701026  RH  050%=      5-min Rain = 0
KPD1 190906Z 21003KT 07/M03 A3001 RMK A01 T00711026  RH  050%=      5-min Rain = 0
KPD1 190907Z 21003KT 07/M03 A3001 RMK A01 T00711026  RH  050%=      5-min Rain = 0
KPD1 190908Z 21003KT 07/M03 A3001 RMK A01 T00721025  RH  050%=      5-min Rain = 0
KPD1 190909Z 22002KT 07/M03 A3001 RMK A01 T00731025  RH  050%=      5-min Rain = 0
KPD1 190910Z 22002KT 08/M03 A3001 RMK A01 T00751025  RH  049%=      5-min Rain = 0
KPD1 190911Z 22002KT 08/M02 A3001 RMK A01 T00761024  RH  049%=      5-min Rain = 0
KPD1 190912Z 22001KT 08/M02 A3001 RMK A01 T00771024  RH  049%=      5-min Rain = 0
KPD1 190913Z 22001KT 08/M02 A3001 RMK A01 T00781024  RH  048%=      5-min Rain = 0
KPD1 190914Z 22002KT 08/M03 A3001 RMK A01 T00781025  RH  048%=      5-min Rain = 0
KPD1 190915Z 23002KT 08/M03 A3001 RMK A01 T00781025  RH  048%=      5-min Rain = 0
KPD1 190916Z 21001KT 08/M02 A3001 RMK A01 T00781024  RH  048%=      5-min Rain = 0
KPD1 190917Z 23001KT 08/M03 A3001 RMK A01 T00771025  RH  048%=      5-min Rain = 0
KPD1 190918Z 21001KT 08/M03 A30 RMK A01 T00771025  RH  049%=      5-min Rain = 0
KPD1 190919Z 21001KT 08/M03 A30 RMK A01 T00761025  RH  049%=      5-min Rain = 0
KPD1 190920Z 22001KT 08/M03 A30 RMK A01 T00751025  RH  049%=      5-min Rain = 0
KPD1 190921Z 20001KT 07/M03 A30 RMK A01 T00741025  RH  050%=      5-min Rain = 0
KPD1 190922Z 20001KT 07/M03 A30 RMK A01 T00731025  RH  050%=      5-min Rain = 0
KPD1 190923Z 18002KT 07/M03 A30 RMK A01 T00731025  RH  050%=      5-min Rain = 0
KPD1 190924Z 18002KT 07/M02 A30 RMK A01 T00721024  RH  050%=      5-min Rain = 0
KPD1 190925Z 18002KT 07/M03 A30 RMK A01 T00721025  RH  050%=      5-min Rain = 0
KPD1 190926Z 18002KT 07/M03 A30 RMK A01 T00701025  RH  051%=      5-min Rain = 0
KPD1 190927Z 18001KT 07/M03 A30 RMK A01 T00701025  RH  051%=      5-min Rain = 0
KPD1 190928Z 16001KT 07/M03 A30 RMK A01 T00691025  RH  051%=      5-min Rain = 0
KPD1 190929Z 15000KT 07/M03 A30 RMK A01 T00681025  RH  052%=      5-min Rain = 0
KPD1 190930Z 00000KT 07/M03 A30 RMK A01 T00671025  RH  052%=      5-min Rain = 0
KPD1 190931Z 00000KT 07/M03 A30 RMK A01 T00661025  RH  052%=      5-min Rain = 0
KPD1 190932Z 00000KT 07/M02 A30 RMK A01 T00671024  RH  052%=      5-min Rain = 0
KPD1 190933Z 00000KT 07/M02 A30 RMK A01 T00661024  RH  052%=      5-min Rain = 0
KPD1 190934Z 00000KT 07/M02 A30 RMK A01 T00661024  RH  053%=      5-min Rain = 0
KPD1 190935Z 00000KT 07/M02 A30 RMK A01 T00651024  RH  053%=      5-min Rain = 0
KPD1 190936Z 00000KT 07/M02 A30 RMK A01 T00651024  RH  053%=      5-min Rain = 0
KPD1 190937Z 00000KT 06/M03 A30 RMK A01 T00631025  RH  053%=      5-min Rain = 0
KPD1 190938Z 00000KT 06/M03 A30 RMK A01 T00621025  RH  053%=      5-min Rain = 0
KPD1 190939Z 00000KT 06/M03 A30 RMK A01 T00611025  RH  054%=      5-min Rain = 0
KPD1 190940Z 00000KT 06/M03 A30 RMK A01 T00601025  RH  054%=      5-min Rain = 0
KPD1 190941Z 00000KT 06/M03 A30 RMK A01 T00591025  RH  055%=      5-min Rain = 0
KPD1 190942Z 00000KT 06/M03 A30 RMK A01 T00591026  RH  055%=      5-min Rain = 0
KPD1 190943Z 00000KT 06/M03 A30 RMK A01 T00581026  RH  055%=      5-min Rain = 0
KPD1 190944Z 00000KT 06/M03 A30 RMK A01 T00571026  RH  055%=      5-min Rain = 0
KPD1 190945Z 00000KT 06/M03 A30 RMK A01 T00571025  RH  055%=      5-min Rain = 0
KPD1 190946Z 00000KT 06/M03 A30 RMK A01 T00571025  RH  055%=      5-min Rain = 0
KPD1 190947Z 00000KT 06/M03 A30 RMK A01 T00571025  RH  056%=      5-min Rain = 0
KPD1 190948Z 00000KT 06/M03 A30 RMK A01 T00561025  RH  056%=      5-min Rain = 0
KPD1 190949Z 00000KT 06/M03 A30 RMK A01 T00561025  RH  056%=      5-min Rain = 0
KPD1 190950Z 00000KT 06/M03 A30 RMK A01 T00561025  RH  056%=      5-min Rain = 0
KPD1 190951Z 00000KT 06/M03 A30 RMK A01 T00551025  RH  056%=      5-min Rain = 0
KPD1 190952Z 00000KT 06/M03 A30 RMK A01 T00551025  RH  056%=      5-min Rain = 0
KPD1 190953Z 00000KT 05/M03 A30 RMK A01 T00541025  RH  057%=      5-min Rain = 0
KPD1 190954Z 00000KT 05/M03 A30 RMK A01 T00541025  RH  057%=      5-min Rain = 0
KPD1 190955Z 00000KT 05/M03 A30 RMK A01 T00541025  RH  057%=      5-min Rain = 0
KPD1 190956Z 00000KT 05/M03 A30 RMK A01 T00541025  RH  057%=      5-min Rain = 0
KPD1 190957Z 00000KT 05/M03 A30 RMK A01 T00541025  RH  057%=      5-min Rain = 0
KPD1 190958Z 00000KT 05/M03 A30 RMK A01 T00541025  RH  057%=      5-min Rain = 0
KPD1 190959Z 12001KT 05/M03 A30 RMK A01 T00541025  RH  057%=      5-min Rain = 0
KPD1 191000Z 12001KT 05/M03 A30 RMK A01 T00541025  RH  057%=      5-min Rain = 0
KPD1 191001Z 12001KT 05/M02 A30 RMK A01 T00541024  RH  057%=      5-min Rain = 0
KPD1 191002Z 12002KT 05/M02 A2999 RMK A01 T00541024  RH  057%=      5-min Rain = 0
KPD1 191003Z 12002KT 05/M03 A2999 RMK A01 T00541025  RH  057%=      5-min Rain = 0
KPD1 191004Z 12002KT 05/M03 A2999 RMK A01 T00541025  RH  057%=      5-min Rain = 0
KPD1 191005Z 12001KT 06/M02 A2999 RMK A01 T00551024  RH  057%=      5-min Rain = 0
KPD1 191006Z 12001KT 06/M03 A2999 RMK A01 T00551025  RH  056%=      5-min Rain = 0
KPD1 191007Z 12001KT 06/M03 A2999 RMK A01 T00551025  RH  056%=      5-min Rain = 0
KPD1 191008Z 13002KT 06/M03 A2999 RMK A01 T00551025  RH  056%=      5-min Rain = 0
KPD1 191009Z 13002KT 06/M03 A2999 RMK A01 T00561025  RH  056%=      5-min Rain = 0
KPD1 191010Z 13002KT 06/M03 A2999 RMK A01 T00551025  RH  056%=      5-min Rain = 0
KPD1 191011Z 13002KT 06/M03 A2999 RMK A01 T00551025  RH  056%=      5-min Rain = 0
KPD1 191012Z 14002KT 06/M03 A2999 RMK A01 T00561025  RH  056%=      5-min Rain = 0
KPD1 191013Z 15002KT 06/M03 A2999 RMK A01 T00551026  RH  056%=      5-min Rain = 0
KPD1 191014Z 14002KT 06/M03 A2999 RMK A01 T00551025  RH  056%=      5-min Rain = 0
KPD1 191015Z 14002KT 06/M03 A2999 RMK A01 T00561025  RH  056%=      5-min Rain = 0
KPD1 191016Z 15001KT 06/M03 A2999 RMK A01 T00561025  RH  056%=      5-min Rain = 0
KPD1 191017Z 15001KT 06/M02 A2999 RMK A01 T00571024  RH  056%=      5-min Rain = 0
KPD1 191018Z 15001KT 06/M03 A2999 RMK A01 T00571025  RH  056%=      5-min Rain = 0
KPD1 191019Z 15001KT 06/M03 A2999 RMK A01 T00571025  RH  056%=      5-min Rain = 0
KPD1 191020Z 15002KT 06/M03 A2999 RMK A01 T00561026  RH  056%=      5-min Rain = 0
KPD1 191021Z 15001KT 06/M03 A2999 RMK A01 T00551026  RH  056%=      5-min Rain = 0
KPD1 191022Z 14001KT 05/M03 A2999 RMK A01 T00541027  RH  056%=      5-min Rain = 0
KPD1 191023Z 13001KT 05/M03 A2999 RMK A01 T00531027  RH  056%=      5-min Rain = 0
KPD1 191024Z 13001KT 05/M03 A2999 RMK A01 T00531026  RH  057%=      5-min Rain = 0
KPD1 191025Z 13002KT 05/M03 A2999 RMK A01 T00521026  RH  057%=      5-min Rain = 0
KPD1 191026Z 13002KT 05/M03 A2999 RMK A01 T00521026  RH  057%=      5-min Rain = 0
KPD1 191027Z 13002KT 05/M03 A2999 RMK A01 T00521025  RH  057%=      5-min Rain = 0
KPD1 191028Z 13002KT 05/M03 A2999 RMK A01 T00521025  RH  057%=      5-min Rain = 0
KPD1 191029Z 14002KT 05/M03 A2999 RMK A01 T00531025  RH  057%=      5-min Rain = 0
KPD1 191030Z 14002KT 05/M03 A2999 RMK A01 T00531025  RH  057%=      5-min Rain = 0
KPD1 191031Z 14002KT 05/M03 A2999 RMK A01 T00541025  RH  057%=      5-min Rain = 0
KPD1 191032Z 14002KT 06/M03 A2999 RMK A01 T00551025  RH  057%=      5-min Rain = 0
KPD1 191033Z 14002KT 06/M02 A2999 RMK A01 T00561024  RH  056%=      5-min Rain = 0
KPD1 191034Z 15002KT 06/M02 A2999 RMK A01 T00561024  RH  056%=      5-min Rain = 0
KPD1 191035Z 15002KT 06/M02 A2999 RMK A01 T00561024  RH  056%=      5-min Rain = 0
KPD1 191036Z 15002KT 06/M02 A2999 RMK A01 T00571024  RH  056%=      5-min Rain = 0
KPD1 191037Z 15002KT 06/M03 A2999 RMK A01 T00571025  RH  056%=      5-min Rain = 0
KPD1 191038Z 16002KT 06/M03 A2999 RMK A01 T00561025  RH  056%=      5-min Rain = 0
KPD1 191039Z 16002KT 06/M02 A2999 RMK A01 T00571024  RH  056%=      5-min Rain = 0
KPD1 191040Z 16003KT 06/M03 A2999 RMK A01 T00571025  RH  056%=      5-min Rain = 0
KPD1 191041Z 16003KT 06/M03 A2999 RMK A01 T00571025  RH  056%=      5-min Rain = 0
KPD1 191042Z 15002KT 06/M03 A2999 RMK A01 T00561025  RH  056%=      5-min Rain = 0
KPD1 191043Z 15003KT 06/M03 A2999 RMK A01 T00551025  RH  056%=      5-min Rain = 0
KPD1 191044Z 15003KT 06/M03 A2999 RMK A01 T00551025  RH  056%=      5-min Rain = 0
KPD1 191045Z 15003KT 05/M03 A2998 RMK A01 T00541025  RH  057%=      5-min Rain = 0
KPD1 191046Z 15003KT 05/M03 A2998 RMK A01 T00541025  RH  057%=      5-min Rain = 0
KPD1 191047Z 15003KT 05/M03 A2998 RMK A01 T00541025  RH  057%=      5-min Rain = 0
KPD1 191048Z 15003KT 06/M02 A2998 RMK A01 T00551024  RH  057%=      5-min Rain = 0
KPD1 191049Z 15003KT 06/M02 A2998 RMK A01 T00571024  RH  056%=      5-min Rain = 0
KPD1 191050Z 15003KT 06/M02 A2998 RMK A01 T00581024  RH  055%=      5-min Rain = 0
KPD1 191051Z 15003KT 06/M02 A2998 RMK A01 T00601023  RH  055%=      5-min Rain = 0
KPD1 191052Z 15003KT 06/M02 A2998 RMK A01 T00621023  RH  055%=      5-min Rain = 0
KPD1 191053Z 16004KT 06/M02 A2998 RMK A01 T00631023  RH  054%=      5-min Rain = 0
KPD1 191054Z 16004KT 06/M02 A2998 RMK A01 T00641023  RH  054%=      5-min Rain = 0
KPD1 191055Z 16005KT 06/M02 A2998 RMK A01 T00641024  RH  054%=      5-min Rain = 0
KPD1 191056Z 17005KT 06/M02 A2998 RMK A01 T00631024  RH  054%=      5-min Rain = 0
KPD1 191057Z 17005KT 06/M02 A2998 RMK A01 T00631024  RH  054%=      5-min Rain = 0
KPD1 191058Z 17005KT 06/M02 A2998 RMK A01 T00641023  RH  054%=      5-min Rain = 0
KPD1 191059Z 17005KT 06/M02 A2998 RMK A01 T00631024  RH  054%=      5-min Rain = 0
KPD1 191100Z 18005KT 06/M02 A2998 RMK A01 T00641023  RH  054%=      5-min Rain = 0
KPD1 191101Z 18005KT 06/M02 A2998 RMK A01 T00631023  RH  054%=      5-min Rain = 0
KPD1 191102Z 18006KT 06/M02 A2998 RMK A01 T00621024  RH  054%=      5-min Rain = 0
KPD1 191103Z 19006KT 06/M02 A2998 RMK A01 T00621024  RH  054%=      5-min Rain = 0
KPD1 191104Z 19006KT 06/M02 A2998 RMK A01 T00611024  RH  054%=      5-min Rain = 0
KPD1 191105Z 19005KT 06/M02 A2998 RMK A01 T00601024  RH  055%=      5-min Rain = 0
KPD1 191106Z 20006KT 06/M02 A2998 RMK A01 T00601024  RH  055%=      5-min Rain = 0
KPD1 191107Z 20006KT 06/M02 A2998 RMK A01 T00591024  RH  055%=      5-min Rain = 0
KPD1 191108Z 20006KT 06/M02 A2998 RMK A01 T00591024  RH  055%=      5-min Rain = 0
KPD1 191109Z 20006KT 06/M02 A2998 RMK A01 T00591024  RH  055%=      5-min Rain = 0
KPD1 191110Z 20006KT 06/M02 A2998 RMK A01 T00591024  RH  055%=      5-min Rain = 0
KPD1 191111Z 20007KT 06/M02 A2998 RMK A01 T00591023  RH  055%=      5-min Rain = 0
KPD1 191112Z 20007KT 06/M02 A2998 RMK A01 T00591024  RH  055%=      5-min Rain = 0
KPD1 191113Z 19007KT 06/M02 A2998 RMK A01 T00601023  RH  055%=      5-min Rain = 0
KPD1 191114Z 19007KT 06/M02 A2998 RMK A01 T00601023  RH  055%=      5-min Rain = 0
KPD1 191115Z 19006KT 06/M02 A2998 RMK A01 T00611023  RH  055%=      5-min Rain = 0
KPD1 191116Z 18005KT 06/M02 A2998 RMK A01 T00611023  RH  055%=      5-min Rain = 0
KPD1 191117Z 18004KT 06/M02 A2998 RMK A01 T00611023  RH  055%=      5-min Rain = 0
KPD1 191118Z 17003KT 06/M02 A2998 RMK A01 T00621023  RH  055%=      5-min Rain = 0
KPD1 191119Z 18004KT 06/M02 A2998 RMK A01 T00611023  RH  055%=      5-min Rain = 0
KPD1 191120Z 18004KT 06/M02 A2998 RMK A01 T00621023  RH  055%=      5-min Rain = 0
KPD1 191121Z 18005KT 06/M02 A2998 RMK A01 T00631022  RH  054%=      5-min Rain = 0
KPD1 191122Z 18005KT 06/M02 A2998 RMK A01 T00631023  RH  054%=      5-min Rain = 0
KPD1 191123Z 18005KT 06/M02 A2997 RMK A01 T00631023  RH  054%=      5-min Rain = 0
KPD1 191124Z 18004KT 06/M02 A2997 RMK A01 T00631023  RH  054%=      5-min Rain = 0
KPD1 191125Z 19004KT 06/M02 A2997 RMK A01 T00631023  RH  054%=      5-min Rain = 0
KPD1 191126Z 19005KT 06/M02 A2997 RMK A01 T00621023  RH  054%=      5-min Rain = 0
KPD1 191127Z 19005KT 06/M02 A2997 RMK A01 T00611023  RH  055%=      5-min Rain = 0
KPD1 191128Z 19006KT 06/M02 A2997 RMK A01 T00611023  RH  055%=      5-min Rain = 0
KPD1 191129Z 19006KT 06/M02 A2997 RMK A01 T00601023  RH  055%=      5-min Rain = 0
KPD1 191130Z 19006KT 06/M02 A2997 RMK A01 T00611023  RH  055%=      5-min Rain = 0
KPD1 191131Z 19006KT 06/M02 A2997 RMK A01 T00611023  RH  055%=      5-min Rain = 0
KPD1 191132Z 19006KT 06/M02 A2997 RMK A01 T00611023  RH  055%=      5-min Rain = 0
KPD1 191133Z 19007KT 06/M02 A2997 RMK A01 T00601023  RH  055%=      5-min Rain = 0
KPD1 191134Z 19006KT 06/M02 A2997 RMK A01 T00601023  RH  055%=      5-min Rain = 0
KPD1 191135Z 19006KT 06/M02 A2997 RMK A01 T00601023  RH  055%=      5-min Rain = 0
KPD1 191136Z 19006KT 06/M02 A2997 RMK A01 T00591023  RH  056%=      5-min Rain = 0
KPD1 191137Z 19006KT 06/M02 A2997 RMK A01 T00591023  RH  056%=      5-min Rain = 0
KPD1 191138Z 18006KT 06/M02 A2997 RMK A01 T00591022  RH  056%=      5-min Rain = 0
KPD1 191139Z 18006KT 06/M02 A2997 RMK A01 T00591023  RH  056%=      5-min Rain = 0
KPD1 191140Z 18007KT 06/M02 A2997 RMK A01 T00601022  RH  056%=      5-min Rain = 0
KPD1 191141Z 18007KT 06/M02 A2997 RMK A01 T00611022  RH  055%=      5-min Rain = 0
KPD1 191142Z 18007KT 06/M02 A2997 RMK A01 T00631021  RH  055%=      5-min Rain = 0
KPD1 191143Z 18007KT 07/M02 A2997 RMK A01 T00651021  RH  054%=      5-min Rain = 0
KPD1 191144Z 18007KT 07/M02 A2997 RMK A01 T00671021  RH  053%=      5-min Rain = 0
KPD1 191145Z 18007KT 07/M02 A2997 RMK A01 T00681021  RH  053%=      5-min Rain = 0
KPD1 191146Z 18007KT 07/M02 A2997 RMK A01 T00691021  RH  053%=      5-min Rain = 0
KPD1 191147Z 18007KT 07/M02 A2997 RMK A01 T00711021  RH  052%=      5-min Rain = 0
KPD1 191148Z 18007KT 07/M02 A2997 RMK A01 T00711021  RH  052%=      5-min Rain = 0
KPD1 191149Z 18007KT 07/M02 A2997 RMK A01 T00711021  RH  052%=      5-min Rain = 0
KPD1 191150Z 18006KT 07/M02 A2997 RMK A01 T00721021  RH  052%=      5-min Rain = 0
KPD1 191151Z 17006KT 07/M02 A2997 RMK A01 T00731021  RH  051%=      5-min Rain = 0
KPD1 191152Z 17005KT 07/M02 A2997 RMK A01 T00741021  RH  051%=      5-min Rain = 0
KPD1 191153Z 17005KT 07/M02 A2997 RMK A01 T00741021  RH  051%=      5-min Rain = 0
KPD1 191154Z 18005KT 07/M02 A2997 RMK A01 T00741021  RH  051%=      5-min Rain = 0
KPD1 191155Z 18005KT 08/M02 A2997 RMK A01 T00751021  RH  051%=      5-min Rain = 0
KPD1 191156Z 19006KT 08/M02 A2997 RMK A01 T00751022  RH  050%=      5-min Rain = 0
KPD1 191157Z 19007KT 08/M02 A2997 RMK A01 T00751022  RH  050%=      5-min Rain = 0
KPD1 191158Z 19007KT 08/M02 A2997 RMK A01 T00751022  RH  050%=      5-min Rain = 0
KPD1 191159Z 19007KT 07/M02 A2997 RMK A01 T00741022  RH  051%=      5-min Rain = 0
KPD1 191200Z 19007KT 07/M02 A2997 RMK A01 T00731022  RH  051%=      5-min Rain = 0
KPD1 191201Z 19007KT 07/M02 A2997 RMK A01 T00721022  RH  051%=      5-min Rain = 0
KPD1 191202Z 19007KT 07/M02 A2997 RMK A01 T00721022  RH  051%=      5-min Rain = 0
KPD1 191203Z 19007KT 07/M02 A2997 RMK A01 T00711023  RH  051%=      5-min Rain = 0
KPD1 191204Z 19007KT 07/M02 A2997 RMK A01 T00701023  RH  052%=      5-min Rain = 0
KPD1 191205Z 19007KT 07/M02 A2997 RMK A01 T00711022  RH  052%=      5-min Rain = 0
KPD1 191206Z 20007KT 07/M02 A2997 RMK A01 T00701022  RH  052%=      5-min Rain = 0
KPD1 191207Z 20007KT 07/M02 A2997 RMK A01 T00701022  RH  052%=      5-min Rain = 0
KPD1 191208Z 20007KT 07/M02 A2997 RMK A01 T00691023  RH  052%=      5-min Rain = 0
KPD1 191209Z 20007KT 07/M02 A2997 RMK A01 T00691023  RH  052%=      5-min Rain = 0
KPD1 191210Z 20007KT 07/M02 A2997 RMK A01 T00701022  RH  052%=      5-min Rain = 0
KPD1 191211Z 20006KT 07/M02 A2997 RMK A01 T00701023  RH  052%=      5-min Rain = 0
KPD1 191212Z 20006KT 07/M02 A2997 RMK A01 T00701022  RH  052%=      5-min Rain = 0
KPD1 191213Z 20007KT 07/M02 A2997 RMK A01 T00701023  RH  052%=      5-min Rain = 0
KPD1 191214Z 20007KT 07/M02 A2997 RMK A01 T00701022  RH  052%=      5-min Rain = 0
KPD1 191215Z 20007KT 07/M02 A2997 RMK A01 T00701022  RH  052%=      5-min Rain = 0
KPD1 191216Z 20007KT 07/M02 A2997 RMK A01 T00701022  RH  052%=      5-min Rain = 0
KPD1 191217Z 20007KT 07/M02 A2997 RMK A01 T00711022  RH  052%=      5-min Rain = 0
KPD1 191218Z 20006KT 07/M02 A2997 RMK A01 T00711022  RH  052%=      5-min Rain = 0
KPD1 191219Z 20006KT 07/M02 A2997 RMK A01 T00711021  RH  052%=      5-min Rain = 0
KPD1 191220Z 20006KT 07/M02 A2997 RMK A01 T00711021  RH  052%=      5-min Rain = 0
KPD1 191221Z 19006KT 07/M02 A2997 RMK A01 T00711021  RH  052%=      5-min Rain = 0
KPD1 191222Z 19007KT 07/M02 A2997 RMK A01 T00711021  RH  052%=      5-min Rain = 0
KPD1 191223Z 19007KT 07/M02 A2997 RMK A01 T00711021  RH  052%=      5-min Rain = 0
KPD1 191224Z 20007KT 07/M02 A2997 RMK A01 T00701021  RH  052%=      5-min Rain = 0
KPD1 191225Z 20006KT 07/M02 A2997 RMK A01 T00691021  RH  053%=      5-min Rain = 0
KPD1 191226Z 20006KT 07/M02 A2997 RMK A01 T00691021  RH  053%=      5-min Rain = 0
KPD1 191227Z 20006KT 07/M02 A2997 RMK A01 T00691020  RH  053%=      5-min Rain = 0
KPD1 191228Z 20006KT 07/M02 A2997 RMK A01 T00691020  RH  053%=      5-min Rain = 0
KPD1 191229Z 20005KT 07/M02 A2997 RMK A01 T00681021  RH  053%=      5-min Rain = 0
KPD1 191230Z 20006KT 07/M02 A2997 RMK A01 T00681021  RH  053%=      5-min Rain = 0
KPD1 191231Z 20006KT 07/M02 A2996 RMK A01 T00681021  RH  053%=      5-min Rain = 0
KPD1 191232Z 20006KT 07/M02 A2996 RMK A01 T00671021  RH  053%=      5-min Rain = 0
KPD1 191233Z 19006KT 07/M02 A2996 RMK A01 T00671021  RH  053%=      5-min Rain = 0
KPD1 191234Z 19006KT 07/M02 A2996 RMK A01 T00671021  RH  053%=      5-min Rain = 0
KPD1 191235Z 19005KT 07/M02 A2996 RMK A01 T00661021  RH  053%=      5-min Rain = 0
KPD1 191236Z 19005KT 07/M02 A2996 RMK A01 T00661021  RH  054%=      5-min Rain = 0
KPD1 191237Z 19005KT 07/M02 A2996 RMK A01 T00651022  RH  054%=      5-min Rain = 0
KPD1 191238Z 19006KT 06/M02 A2996 RMK A01 T00631022  RH  054%=      5-min Rain = 0
KPD1 191239Z 19005KT 06/M02 A2996 RMK A01 T00621022  RH  055%=      5-min Rain = 0
KPD1 191240Z 19005KT 06/M02 A2996 RMK A01 T00611022  RH  055%=      5-min Rain = 0
KPD1 191241Z 18005KT 06/M02 A2996 RMK A01 T00611022  RH  055%=      5-min Rain = 0
KPD1 191242Z 18005KT 06/M02 A2996 RMK A01 T00611022  RH  055%=      5-min Rain = 0
KPD1 191243Z 18005KT 06/M02 A2996 RMK A01 T00611022  RH  055%=      5-min Rain = 0
KPD1 191244Z 17005KT 06/M02 A2996 RMK A01 T00611022  RH  055%=      5-min Rain = 0
KPD1 191245Z 18005KT 06/M02 A2996 RMK A01 T00611021  RH  055%=      5-min Rain = 0
KPD1 191246Z 18005KT 06/M02 A2996 RMK A01 T00611021  RH  055%=      5-min Rain = 0
KPD1 191247Z 18005KT 06/M02 A2996 RMK A01 T00621021  RH  055%=      5-min Rain = 0
KPD1 191248Z 18005KT 06/M02 A2996 RMK A01 T00611021  RH  055%=      5-min Rain = 0
KPD1 191249Z 18005KT 06/M02 A2996 RMK A01 T00611021  RH  055%=      5-min Rain = 0
KPD1 191250Z 18004KT 06/M02 A2996 RMK A01 T00611021  RH  055%=      5-min Rain = 0
KPD1 191251Z 18004KT 06/M02 A2996 RMK A01 T00611022  RH  055%=      5-min Rain = 0
KPD1 191252Z 17005KT 06/M02 A2996 RMK A01 T00611021  RH  055%=      5-min Rain = 0
KPD1 191253Z 18004KT 06/M02 A2996 RMK A01 T00621021  RH  055%=      5-min Rain = 0
KPD1 191254Z 17004KT 06/M02 A2996 RMK A01 T00611021  RH  055%=      5-min Rain = 0
KPD1 191255Z 17004KT 06/M02 A2996 RMK A01 T00611021  RH  055%=      5-min Rain = 0
KPD1 191256Z 17004KT 06/M02 A2996 RMK A01 T00611021  RH  055%=      5-min Rain = 0
KPD1 191257Z 16004KT 06/M02 A2996 RMK A01 T00611022  RH  055%=      5-min Rain = 0
KPD1 191258Z 16004KT 06/M02 A2996 RMK A01 T00621021  RH  055%=      5-min Rain = 0
KPD1 191259Z 15004KT 06/M02 A2996 RMK A01 T00611022  RH  055%=      5-min Rain = 0
KPD1 191300Z 14005KT 06/M02 A2996 RMK A01 T00611022  RH  055%=      5-min Rain = 0
KPD1 191301Z 14004KT 06/M02 A2996 RMK A01 T00611022  RH  056%=      5-min Rain = 0
KPD1 191302Z 14004KT 06/M02 A2996 RMK A01 T00601022  RH  056%=      5-min Rain = 0
KPD1 191303Z 14004KT 06/M02 A2996 RMK A01 T00601022  RH  056%=      5-min Rain = 0
KPD1 191304Z 14004KT 06/M02 A2996 RMK A01 T00591022  RH  056%=      5-min Rain = 0
KPD1 191305Z 15004KT 06/M02 A2996 RMK A01 T00581023  RH  056%=      5-min Rain = 0
KPD1 191306Z 15004KT 06/M02 A2996 RMK A01 T00581022  RH  056%=      5-min Rain = 0
KPD1 191307Z 15004KT 06/M02 A2997 RMK A01 T00581023  RH  056%=      5-min Rain = 0
KPD1 191308Z 16004KT 06/M02 A2997 RMK A01 T00581023  RH  056%=      5-min Rain = 0
KPD1 191309Z 16004KT 06/M02 A2997 RMK A01 T00581022  RH  056%=      5-min Rain = 0
KPD1 191310Z 16004KT 06/M02 A2997 RMK A01 T00581023  RH  056%=      5-min Rain = 0
KPD1 191311Z 16003KT 06/M02 A2997 RMK A01 T00571023  RH  056%=      5-min Rain = 0
KPD1 191312Z 16003KT 06/M02 A2997 RMK A01 T00571023  RH  056%=      5-min Rain = 0
KPD1 191313Z 16002KT 06/M02 A2997 RMK A01 T00571023  RH  057%=      5-min Rain = 0
KPD1 191314Z 16002KT 06/M02 A2997 RMK A01 T00561023  RH  057%=      5-min Rain = 0
KPD1 191315Z 16002KT 06/M02 A2997 RMK A01 T00561023  RH  057%=      5-min Rain = 0
KPD1 191316Z 18001KT 06/M02 A2997 RMK A01 T00571022  RH  057%=      5-min Rain = 0
KPD1 191317Z 18001KT 06/M02 A2997 RMK A01 T00571022  RH  057%=      5-min Rain = 0
KPD1 191318Z 19001KT 06/M02 A2997 RMK A01 T00571023  RH  056%=      5-min Rain = 0
KPD1 191319Z 19001KT 06/M02 A2997 RMK A01 T00561023  RH  057%=      5-min Rain = 0
KPD1 191320Z 18001KT 06/M02 A2997 RMK A01 T00561023  RH  057%=      5-min Rain = 0
KPD1 191321Z 16001KT 06/M02 A2997 RMK A01 T00551023  RH  057%=      5-min Rain = 0
KPD1 191322Z 16002KT 06/M02 A2997 RMK A01 T00551023  RH  057%=      5-min Rain = 0
KPD1 191323Z 16002KT 05/M02 A2997 RMK A01 T00541023  RH  057%=      5-min Rain = 0
KPD1 191324Z 17002KT 05/M02 A2997 RMK A01 T00541023  RH  058%=      5-min Rain = 0
KPD1 191325Z 17002KT 05/M02 A2997 RMK A01 T00531023  RH  058%=      5-min Rain = 0
KPD1 191326Z 18002KT 05/M02 A2997 RMK A01 T00521024  RH  058%=      5-min Rain = 0
KPD1 191327Z 19002KT 05/M02 A2997 RMK A01 T00511023  RH  058%=      5-min Rain = 0
KPD1 191328Z 21002KT 05/M02 A2997 RMK A01 T00511023  RH  059%=      5-min Rain = 0
KPD1 191329Z 21002KT 05/M02 A2997 RMK A01 T00521022  RH  059%=      5-min Rain = 0
KPD1 191330Z 21003KT 05/M02 A2997 RMK A01 T00531022  RH  058%=      5-min Rain = 0
KPD1 191331Z 22003KT 05/M02 A2997 RMK A01 T00541023  RH  058%=      5-min Rain = 0
KPD1 191332Z 22003KT 05/M02 A2997 RMK A01 T00531023  RH  058%=      5-min Rain = 0
KPD1 191333Z 22003KT 05/M02 A2997 RMK A01 T00531023  RH  058%=      5-min Rain = 0
KPD1 191334Z 21003KT 05/M02 A2997 RMK A01 T00531023  RH  058%=      5-min Rain = 0
KPD1 191335Z 20003KT 05/M02 A2997 RMK A01 T00531023  RH  058%=      5-min Rain = 0
KPD1 191336Z 20003KT 05/M02 A2997 RMK A01 T00531022  RH  058%=      5-min Rain = 0
KPD1 191337Z 19002KT 05/M02 A2997 RMK A01 T00531023  RH  058%=      5-min Rain = 0
KPD1 191338Z 18002KT 05/M02 A2997 RMK A01 T00541022  RH  058%=      5-min Rain = 0
KPD1 191339Z 17002KT 06/M02 A2997 RMK A01 T00551022  RH  058%=      5-min Rain = 0
KPD1 191340Z 17002KT 06/M02 A2997 RMK A01 T00571021  RH  057%=      5-min Rain = 0
KPD1 191341Z 17002KT 06/M02 A2997 RMK A01 T00581021  RH  057%=      5-min Rain = 0
KPD1 191342Z 17003KT 06/M02 A2997 RMK A01 T00601021  RH  056%=      5-min Rain = 0
KPD1 191343Z 17003KT 06/M02 A2997 RMK A01 T00601021  RH  056%=      5-min Rain = 0
KPD1 191344Z 17004KT 06/M02 A2997 RMK A01 T00611021  RH  056%=      5-min Rain = 0
KPD1 191345Z 17004KT 06/M02 A2997 RMK A01 T00621021  RH  056%=      5-min Rain = 0
KPD1 191346Z 18004KT 06/M02 A2997 RMK A01 T00621021  RH  055%=      5-min Rain = 0
KPD1 191347Z 18004KT 06/M02 A2997 RMK A01 T00631020  RH  055%=      5-min Rain = 0
KPD1 191348Z 18003KT 06/M02 A2997 RMK A01 T00631021  RH  055%=      5-min Rain = 0
KPD1 191349Z 18003KT 06/M02 A2997 RMK A01 T00631021  RH  055%=      5-min Rain = 0
KPD1 191350Z 18004KT 06/M02 A2997 RMK A01 T00631021  RH  055%=      5-min Rain = 0
KPD1 191351Z 18004KT 06/M02 A2997 RMK A01 T00631021  RH  055%=      5-min Rain = 0
KPD1 191352Z 18004KT 06/M02 A2997 RMK A01 T00641021  RH  055%=      5-min Rain = 0
KPD1 191353Z 18004KT 07/M02 A2997 RMK A01 T00651020  RH  055%=      5-min Rain = 0
KPD1 191354Z 18004KT 07/M02 A2997 RMK A01 T00661019  RH  055%=      5-min Rain = 0
KPD1 191355Z 18004KT 07/M02 A2997 RMK A01 T00671019  RH  054%=      5-min Rain = 0
KPD1 191356Z 18004KT 07/M02 A2997 RMK A01 T00681019  RH  054%=      5-min Rain = 0
KPD1 191357Z 18004KT 07/M02 A2997 RMK A01 T00691018  RH  054%=      5-min Rain = 0
KPD1 191358Z 18004KT 07/M02 A2997 RMK A01 T00701018  RH  053%=      5-min Rain = 0
KPD1 191359Z 18004KT 07/M02 A2997 RMK A01 T00711018  RH  053%=      5-min Rain = 0
KPD1 191400Z 18004KT 07/M02 A2997 RMK A01 T00731017  RH  053%=      5-min Rain = 0
KPD1 191401Z 17003KT 08/M02 A2997 RMK A01 T00751017  RH  052%=      5-min Rain = 0
KPD1 191402Z 16004KT 08/M02 A2997 RMK A01 T00771016  RH  052%=      5-min Rain = 0
KPD1 191403Z 16004KT 08/M02 A2997 RMK A01 T00781015  RH  052%=      5-min Rain = 0
KPD1 191404Z 16004KT 08/M01 A2997 RMK A01 T00801014  RH  051%=      5-min Rain = 0
KPD1 191405Z 16003KT 08/M01 A2997 RMK A01 T00811014  RH  051%=      5-min Rain = 0
KPD1 191406Z 16003KT 08/M01 A2997 RMK A01 T00821014  RH  051%=      5-min Rain = 0
KPD1 191407Z 15003KT 08/M02 A2997 RMK A01 T00821015  RH  050%=      5-min Rain = 0
KPD1 191408Z 14003KT 08/M01 A2997 RMK A01 T00831014  RH  050%=      5-min Rain = 0
KPD1 191409Z 15003KT 08/M01 A2997 RMK A01 T00831014  RH  050%=      5-min Rain = 0
KPD1 191410Z 15003KT 08/M02 A2997 RMK A01 T00841015  RH  050%=      5-min Rain = 0
KPD1 191411Z 15003KT 08/M01 A2997 RMK A01 T00841014  RH  050%=      5-min Rain = 0
KPD1 191412Z 15003KT 09/M01 A2997 RMK A01 T00851014  RH  050%=      5-min Rain = 0
KPD1 191413Z 15004KT 09/M01 A2997 RMK A01 T00861013  RH  050%=      5-min Rain = 0
KPD1 191414Z 15004KT 09/M01 A2997 RMK A01 T00861013  RH  050%=      5-min Rain = 0
KPD1 191415Z 15004KT 09/M01 A2997 RMK A01 T00871013  RH  050%=      5-min Rain = 0
KPD1 191416Z 15004KT 09/M01 A2997 RMK A01 T00871013  RH  049%=      5-min Rain = 0
KPD1 191417Z 15004KT 09/M01 A2997 RMK A01 T00871013  RH  049%=      5-min Rain = 0
KPD1 191418Z 15003KT 09/M01 A2997 RMK A01 T00871012  RH  050%=      5-min Rain = 0
KPD1 191419Z 15003KT 09/M01 A2997 RMK A01 T00881011  RH  050%=      5-min Rain = 0
KPD1 191420Z 16004KT 09/M01 A2997 RMK A01 T00881010  RH  050%=      5-min Rain = 0
KPD1 191421Z 16005KT 09/M01 A2997 RMK A01 T00891011  RH  050%=      5-min Rain = 0
KPD1 191422Z 16005KT 09/M01 A2997 RMK A01 T00901011  RH  049%=      5-min Rain = 0
KPD1 191423Z 16005KT 09/M01 A2996 RMK A01 T00891011  RH  049%=      5-min Rain = 0
KPD1 191424Z 16005KT 09/M01 A2996 RMK A01 T00891012  RH  049%=      5-min Rain = 0
KPD1 191425Z 16004KT 09/M01 A2996 RMK A01 T00901012  RH  049%=      5-min Rain = 0
KPD1 191426Z 16004KT 09/M01 A2996 RMK A01 T00901012  RH  049%=      5-min Rain = 0
KPD1 191427Z 16004KT 09/M01 A2996 RMK A01 T00911011  RH  049%=      5-min Rain = 0
KPD1 191428Z 16004KT 09/M01 A2996 RMK A01 T00911011  RH  049%=      5-min Rain = 0
KPD1 191429Z 16004KT 09/M01 A2996 RMK A01 T00921010  RH  049%=      5-min Rain = 0
KPD1 191430Z 17005KT 09/M01 A2996 RMK A01 T00931010  RH  049%=      5-min Rain = 0
KPD1 191431Z 16005KT 09/M01 A2996 RMK A01 T00941010  RH  048%=      5-min Rain = 0
KPD1 191432Z 16006KT 10/M01 A2996 RMK A01 T00951009  RH  048%=      5-min Rain = 0
KPD1 191433Z 17005KT 10/M01 A2996 RMK A01 T00971009  RH  048%=      5-min Rain = 0
KPD1 191434Z 16004KT 10/M01 A2996 RMK A01 T00981008  RH  048%=      5-min Rain = 0
KPD1 191435Z 16005KT 10/M01 A2996 RMK A01 T00991008  RH  047%=      5-min Rain = 0
KPD1 191436Z 17005KT 10/M01 A2996 RMK A01 T01001009  RH  047%=      5-min Rain = 0
KPD1 191437Z 17005KT 10/M01 A2996 RMK A01 T01001009  RH  047%=      5-min Rain = 0
KPD1 191438Z 17006KT 10/M01 A2996 RMK A01 T01011008  RH  047%=      5-min Rain = 0
KPD1 191439Z 18006KT 10/M01 A2996 RMK A01 T01011009  RH  046%=      5-min Rain = 0
KPD1 191440Z 18005KT 10/M01 A2996 RMK A01 T01021009  RH  046%=      5-min Rain = 0
KPD1 191441Z 17007KT 10/M01 A2997 RMK A01 T01021010  RH  046%=      5-min Rain = 0
KPD1 191442Z 18006KT 10/M01 A2997 RMK A01 T01021011  RH  045%=      5-min Rain = 0
KPD1 191443Z 18007KT 10/M01 A2997 RMK A01 T01031010  RH  046%=      5-min Rain = 0
KPD1 191444Z 18007KT 10/M01 A2997 RMK A01 T01031010  RH  045%=      5-min Rain = 0
KPD1 191445Z 18006KT 10/M01 A2997 RMK A01 T01031009  RH  046%=      5-min Rain = 0
KPD1 191446Z 18006KT 10/M01 A2997 RMK A01 T01031009  RH  046%=      5-min Rain = 0
KPD1 191447Z 18008KT 11/M01 A2997 RMK A01 T01051008  RH  045%=      5-min Rain = 0
KPD1 191448Z 17008KT 11/M01 A2997 RMK A01 T01051009  RH  045%=      5-min Rain = 0
KPD1 191449Z 17006KT 11/M01 A2997 RMK A01 T01061008  RH  045%=      5-min Rain = 0
KPD1 191450Z 17006KT 11/M01 A2997 RMK A01 T01061008  RH  045%=      5-min Rain = 0
KPD1 191451Z 17006KT 11/M01 A2997 RMK A01 T01071007  RH  045%=      5-min Rain = 0
KPD1 191452Z 17006KT 11/M01 A2997 RMK A01 T01081007  RH  045%=      5-min Rain = 0
KPD1 191453Z 17005KT 11/M01 A2997 RMK A01 T01091006  RH  045%=      5-min Rain = 0
KPD1 191454Z 17006KT 11/M01 A2997 RMK A01 T01111005  RH  045%=      5-min Rain = 0
KPD1 191455Z 17004KT 11/M01 A2997 RMK A01 T01111006  RH  044%=      5-min Rain = 0
KPD1 191456Z 17007KT 11/M01 A2997 RMK A01 T01121006  RH  044%=      5-min Rain = 0
KPD1 191457Z 17005KT 11/M01 A2997 RMK A01 T01131006  RH  044%=      5-min Rain = 0
KPD1 191458Z 16006KT 11/M01 A2997 RMK A01 T01131005  RH  044%=      5-min Rain = 0
KPD1 191459Z 17007KT 11/M01 A2997 RMK A01 T01141006  RH  044%=      5-min Rain = 0
KPD1 191500Z 17007KT 11/M01 A2997 RMK A01 T01141007  RH  043%=      5-min Rain = 0
KPD1 191501Z 17006KT 11/M01 A2996 RMK A01 T01141007  RH  043%=      5-min Rain = 0
KPD1 191502Z 17006KT 11/M01 A2996 RMK A01 T01141007  RH  043%=      5-min Rain = 0
KPD1 191503Z 17006KT 11/M01 A2996 RMK A01 T01141007  RH  043%=      5-min Rain = 0
KPD1 191504Z 17006KT 11/M01 A2996 RMK A01 T01141007  RH  043%=      5-min Rain = 0
KPD1 191505Z 17005KT 11/M01 A2996 RMK A01 T01141006  RH  043%=      5-min Rain = 0
KPD1 191506Z 17006KT 12/M01 A2996 RMK A01 T01161005  RH  043%=      5-min Rain = 0
KPD1 191507Z 17005KT 12/M01 A2996 RMK A01 T01161006  RH  043%=      5-min Rain = 0
KPD1 191508Z 17005KT 12/M01 A2996 RMK A01 T01171006  RH  043%=      5-min Rain = 0
KPD1 191509Z 16005KT 12/M01 A2996 RMK A01 T01171005  RH  043%=      5-min Rain = 0
KPD1 191510Z 15006KT 12/M00 A2996 RMK A01 T01191004  RH  043%=      5-min Rain = 0
KPD1 191511Z 16005KT 12/M01 A2997 RMK A01 T01201006  RH  042%=      5-min Rain = 0
KPD1 191512Z 17005KT 12/M01 A2996 RMK A01 T01201007  RH  042%=      5-min Rain = 0
KPD1 191513Z 16005KT 12/M01 A2997 RMK A01 T01191007  RH  042%=      5-min Rain = 0
KPD1 191514Z 16006KT 12/M01 A2997 RMK A01 T01191005  RH  042%=      5-min Rain = 0
KPD1 191515Z 16005KT 12/M01 A2997 RMK A01 T01191006  RH  042%=      5-min Rain = 0
KPD1 191516Z 16006KT 12/M01 A2996 RMK A01 T01201005  RH  042%=      5-min Rain = 0
KPD1 191517Z 16006KT 12/M00 A2997 RMK A01 T01221003  RH  042%=      5-min Rain = 0
KPD1 191518Z 15005KT 12/M00 A2996 RMK A01 T01241004  RH  041%=      5-min Rain = 0
KPD1 191519Z 16006KT 13/M00 A2997 RMK A01 T01251003  RH  041%=      5-min Rain = 0
KPD1 191520Z 16004KT 13/M00 A2996 RMK A01 T01261004  RH  041%=      5-min Rain = 0
KPD1 191521Z 16005KT 13/M00 A2996 RMK A01 T01271002  RH  041%=      5-min Rain = 0
KPD1 191522Z 16006KT 13/M00 A2996 RMK A01 T01281004  RH  040%=      5-min Rain = 0
KPD1 191523Z 16006KT 13/M01 A2996 RMK A01 T01271005  RH  040%=      5-min Rain = 0
KPD1 191524Z 15007KT 13/M00 A2996 RMK A01 T01271004  RH  041%=      5-min Rain = 0
KPD1 191525Z 15006KT 13/M00 A2996 RMK A01 T01271004  RH  040%=      5-min Rain = 0
KPD1 191526Z 15006KT 13/M00 A2997 RMK A01 T01271004  RH  040%=      5-min Rain = 0
KPD1 191527Z 15008KT 13/M00 A2997 RMK A01 T01281003  RH  040%=      5-min Rain = 0
KPD1 191528Z 16008KT 13/M00 A2997 RMK A01 T01291004  RH  040%=      5-min Rain = 0
KPD1 191529Z 16006KT 13/M00 A2997 RMK A01 T01281004  RH  040%=      5-min Rain = 0
KPD1 191530Z 16005KT 13/M00 A2997 RMK A01 T01281003  RH  040%=      5-min Rain = 0
KPD1 191531Z 16005KT 13/M00 A2997 RMK A01 T01291002  RH  040%=      5-min Rain = 0
KPD1 191532Z 16005KT 13/M00 A2997 RMK A01 T01291004  RH  040%=      5-min Rain = 0
KPD1 191533Z 16007KT 13/M00 A2997 RMK A01 T01291003  RH  040%=      5-min Rain = 0
KPD1 191534Z 15005KT 13/M00 A2997 RMK A01 T01291003  RH  040%=      5-min Rain = 0
KPD1 191535Z 16006KT 13/M00 A2997 RMK A01 T01291003  RH  040%=      5-min Rain = 0
KPD1 191536Z 17005KT 13/M00 A2997 RMK A01 T01301003  RH  040%=      5-min Rain = 0
KPD1 191537Z 18006KT 13/M00 A2997 RMK A01 T01311003  RH  040%=      5-min Rain = 0
KPD1 191538Z 17006KT 13/M00 A2997 RMK A01 T01311003  RH  040%=      5-min Rain = 0
KPD1 191539Z 17007KT 13/M00 A2997 RMK A01 T01311003  RH  040%=      5-min Rain = 0
KPD1 191540Z 17006KT 13/M00 A2997 RMK A01 T01311003  RH  040%=      5-min Rain = 0
KPD1 191541Z 15005KT 13/M00 A2997 RMK A01 T01311002  RH  040%=      5-min Rain = 0
KPD1 191542Z 15006KT 13/00 A2997 RMK A01 T013300-0  RH  040%=      5-min Rain = 0
KPD1 191543Z 15006KT 14/00 A2997 RMK A01 T013500-0  RH  039%=      5-min Rain = 0
KPD1 191544Z 16005KT 14/M00 A2997 RMK A01 T01361001  RH  039%=      5-min Rain = 0
KPD1 191545Z 16005KT 14/M00 A2997 RMK A01 T01361001  RH  039%=      5-min Rain = 0
KPD1 191546Z 17004KT 14/00 A2997 RMK A01 T01360000  RH  039%=      5-min Rain = 0
KPD1 191547Z 16005KT 14/00 A2997 RMK A01 T01370000  RH  039%=      5-min Rain = 0
KPD1 191548Z 15004KT 14/00 A2997 RMK A01 T01370000  RH  039%=      5-min Rain = 0
KPD1 191549Z 15005KT 14/00 A2997 RMK A01 T01390001  RH  039%=      5-min Rain = 0
KPD1 191550Z 14005KT 14/00 A2997 RMK A01 T01400002  RH  039%=      5-min Rain = 0
KPD1 191551Z 15005KT 14/M00 A2997 RMK A01 T01411001  RH  038%=      5-min Rain = 0
KPD1 191552Z 15004KT 14/00 A2997 RMK A01 T014000-0  RH  038%=      5-min Rain = 0
KPD1 191553Z 16005KT 14/00 A2997 RMK A01 T013900-0  RH  038%=      5-min Rain = 0
KPD1 191554Z 15005KT 14/00 A2997 RMK A01 T01400001  RH  038%=      5-min Rain = 0
KPD1 191555Z 16005KT 14/00 A2997 RMK A01 T01400001  RH  038%=      5-min Rain = 0
KPD1 191556Z 15005KT 14/00 A2997 RMK A01 T01400000  RH  038%=      5-min Rain = 0
KPD1 191557Z 16005KT 14/00 A2997 RMK A01 T01390002  RH  039%=      5-min Rain = 0
KPD1 191558Z 15005KT 14/00 A2997 RMK A01 T01410002  RH  039%=      5-min Rain = 0
KPD1 191559Z 15004KT 14/00 A2997 RMK A01 T01410002  RH  038%=      5-min Rain = 0
KPD1 191600Z 14004KT 14/01 A2997 RMK A01 T01430005  RH  039%=      5-min Rain = 0
KPD1 191601Z 14005KT 15/00 A2997 RMK A01 T01460004  RH  038%=      5-min Rain = 0
KPD1 191602Z 15004KT 15/00 A2997 RMK A01 T01460003  RH  038%=      5-min Rain = 0
KPD1 191603Z 16005KT 15/00 A2997 RMK A01 T01450003  RH  038%=      5-min Rain = 0
KPD1 191604Z 17004KT 15/00 A2997 RMK A01 T01450004  RH  038%=      5-min Rain = 0
KPD1 191605Z 16005KT 15/01 A2997 RMK A01 T01470006  RH  038%=      5-min Rain = 0
KPD1 191606Z 16005KT 15/00 A2996 RMK A01 T01480004  RH  038%=      5-min Rain = 0
KPD1 191607Z 15006KT 15/01 A2996 RMK A01 T01480005  RH  038%=      5-min Rain = 0
KPD1 191608Z 16006KT 15/00 A2996 RMK A01 T01480004  RH  037%=      5-min Rain = 0
KPD1 191609Z 16006KT 15/00 A2996 RMK A01 T01480003  RH  037%=      5-min Rain = 0
KPD1 191610Z 16005KT 15/00 A2996 RMK A01 T01460003  RH  038%=      5-min Rain = 0
KPD1 191611Z 16007KT 15/00 A2996 RMK A01 T01450004  RH  038%=      5-min Rain = 0
KPD1 191612Z 16008KT 15/00 A2996 RMK A01 T01450003  RH  038%=      5-min Rain = 0
KPD1 191613Z 16005KT 14/00 A2996 RMK A01 T01430002  RH  038%=      5-min Rain = 0
KPD1 191614Z 17005KT 14/00 A2996 RMK A01 T01430004  RH  039%=      5-min Rain = 0
KPD1 191615Z 16006KT 14/01 A2996 RMK A01 T01440005  RH  039%=      5-min Rain = 0
KPD1 191616Z 15006KT 15/01 A2996 RMK A01 T01470007  RH  038%=      5-min Rain = 0
KPD1 191617Z 16006KT 15/01 A2996 RMK A01 T01490006  RH  038%=      5-min Rain = 0
KPD1 191618Z 15004KT 15/01 A2996 RMK A01 T01490007  RH  038%=      5-min Rain = 0
KPD1 191619Z 16005KT 15/01 A2996 RMK A01 T01500007  RH  038%=      5-min Rain = 0
KPD1 191620Z 15005KT 15/01 A2996 RMK A01 T01520008  RH  037%=      5-min Rain = 0
KPD1 191621Z 15007KT 15/01 A2996 RMK A01 T01540008  RH  037%=      5-min Rain = 0
KPD1 191622Z 16007KT 15/01 A2996 RMK A01 T01540006  RH  037%=      5-min Rain = 0
KPD1 191623Z 16006KT 15/01 A2996 RMK A01 T01540007  RH  037%=      5-min Rain = 0
KPD1 191624Z 16007KT 15/01 A2996 RMK A01 T01540008  RH  037%=      5-min Rain = 0
KPD1 191625Z 16006KT 15/01 A2996 RMK A01 T01540007  RH  037%=      5-min Rain = 0
KPD1 191626Z 16006KT 15/01 A2996 RMK A01 T01530008  RH  037%=      5-min Rain = 0
KPD1 191627Z 15006KT 15/01 A2996 RMK A01 T01530009  RH  038%=      5-min Rain = 0
KPD1 191628Z 16006KT 15/01 A2996 RMK A01 T01540008  RH  037%=      5-min Rain = 0
KPD1 191629Z 16006KT 15/01 A2996 RMK A01 T01540008  RH  037%=      5-min Rain = 0
KPD1 191630Z 16005KT 15/01 A2996 RMK A01 T01530009  RH  038%=      5-min Rain = 0
KPD1 191631Z 16005KT 16/01 A2996 RMK A01 T01550012  RH  038%=      5-min Rain = 0
KPD1 191632Z 17007KT 16/01 A2996 RMK A01 T01580012  RH  037%=      5-min Rain = 0
KPD1 191633Z 15008KT 16/01 A2996 RMK A01 T01600011  RH  037%=      5-min Rain = 0
KPD1 191634Z 16007KT 16/01 A2996 RMK A01 T01600011  RH  036%=      5-min Rain = 0
KPD1 191635Z 16008KT 16/01 A2996 RMK A01 T01600010  RH  036%=      5-min Rain = 0
KPD1 191636Z 16007KT 16/01 A2995 RMK A01 T01600011  RH  036%=      5-min Rain = 0
KPD1 191637Z 16008KT 16/01 A2995 RMK A01 T01600011  RH  036%=      5-min Rain = 0
KPD1 191638Z 16007KT 16/01 A2995 RMK A01 T01600012  RH  036%=      5-min Rain = 0
KPD1 191639Z 16006KT 16/01 A2995 RMK A01 T01620013  RH  036%=      5-min Rain = 0
KPD1 191640Z 15007KT 16/01 A2995 RMK A01 T01630013  RH  036%=      5-min Rain = 0
KPD1 191641Z 15007KT 16/01 A2995 RMK A01 T01640012  RH  036%=      5-min Rain = 0
KPD1 191642Z 15006KT 16/01 A2995 RMK A01 T01640014  RH  036%=      5-min Rain = 0
KPD1 191643Z 16008KT 17/02 A2995 RMK A01 T01650015  RH  036%=      5-min Rain = 0
KPD1 191644Z 16008KT 17/01 A2995 RMK A01 T01660013  RH  035%=      5-min Rain = 0
KPD1 191645Z 15011KT 17/01 A2995 RMK A01 T01650013  RH  036%=      5-min Rain = 0
KPD1 191646Z 15008G13KT 17/01 A2995 RMK A01 T01670013  RH  035%=      5-min Rain = 0
KPD1 191647Z 16010KT 17/01 A2995 RMK A01 T01680013  RH  035%=      5-min Rain = 0
KPD1 191648Z 16008KT 17/01 A2995 RMK A01 T01670013  RH  035%=      5-min Rain = 0
KPD1 191649Z 15008KT 17/01 A2995 RMK A01 T01670014  RH  036%=      5-min Rain = 0
KPD1 191650Z 15009KT 17/01 A2994 RMK A01 T01670014  RH  036%=      5-min Rain = 0
KPD1 191651Z 17009KT 17/01 A2994 RMK A01 T01660014  RH  036%=      5-min Rain = 0
KPD1 191652Z 15009KT 17/01 A2995 RMK A01 T01660013  RH  036%=      5-min Rain = 0
KPD1 191653Z 15008KT 17/01 A2995 RMK A01 T01660013  RH  036%=      5-min Rain = 0
KPD1 191654Z 14008KT 17/01 A2995 RMK A01 T01660014  RH  036%=      5-min Rain = 0
KPD1 191655Z 15009KT 17/02 A2995 RMK A01 T01670015  RH  036%=      5-min Rain = 0
KPD1 191656Z 15010KT 17/02 A2995 RMK A01 T01690016  RH  036%=      5-min Rain = 0
KPD1 191657Z 15008KT 17/02 A2995 RMK A01 T01700017  RH  035%=      5-min Rain = 0
KPD1 191658Z 15008KT 17/02 A2994 RMK A01 T01720016  RH  035%=      5-min Rain = 0
KPD1 191659Z 15008KT 17/02 A2994 RMK A01 T01730017  RH  035%=      5-min Rain = 0
KPD1 191700Z 14009KT 17/02 A2994 RMK A01 T01740016  RH  035%=      5-min Rain = 0
KPD1 191701Z 15007KT 17/02 A2994 RMK A01 T01740016  RH  035%=      5-min Rain = 0
KPD1 191702Z 15007KT 18/02 A2994 RMK A01 T01770019  RH  035%=      5-min Rain = 0
KPD1 191703Z 15006KT 18/02 A2994 RMK A01 T01790020  RH  034%=      5-min Rain = 0
KPD1 191704Z 15008KT 18/02 A2994 RMK A01 T01810019  RH  034%=      5-min Rain = 0
KPD1 191705Z 14009KT 18/02 A2994 RMK A01 T01820018  RH  033%=      5-min Rain = 0
KPD1 191706Z 14008KT 18/02 A2994 RMK A01 T01830017  RH  033%=      5-min Rain = 0
KPD1 191707Z 15006KT 18/02 A2994 RMK A01 T01830019  RH  033%=      5-min Rain = 0
KPD1 191708Z 16008KT 19/02 A2994 RMK A01 T01850020  RH  033%=      5-min Rain = 0
KPD1 191709Z 16009KT 19/02 A2994 RMK A01 T01870020  RH  033%=      5-min Rain = 0
KPD1 191710Z 15008KT 19/02 A2994 RMK A01 T01880019  RH  032%=      5-min Rain = 0
KPD1 191711Z 14009KT 19/02 A2994 RMK A01 T01880019  RH  032%=      5-min Rain = 0
KPD1 191712Z 14008KT 19/02 A2994 RMK A01 T01890019  RH  032%=      5-min Rain = 0
KPD1 191713Z 13007KT 19/02 A2994 RMK A01 T01900018  RH  032%=      5-min Rain = 0
KPD1 191714Z 14007KT 19/02 A2993 RMK A01 T01900018  RH  032%=      5-min Rain = 0
KPD1 191715Z 14008KT 19/02 A2993 RMK A01 T01900019  RH  032%=      5-min Rain = 0
KPD1 191716Z 14006KT 19/02 A2993 RMK A01 T01910019  RH  032%=      5-min Rain = 0
KPD1 191717Z 14008KT 19/02 A2993 RMK A01 T01920020  RH  032%=      5-min Rain = 0
KPD1 191718Z 13007KT 19/02 A2993 RMK A01 T01930018  RH  031%=      5-min Rain = 0
KPD1 191719Z 12007KT 19/02 A2993 RMK A01 T01930020  RH  031%=      5-min Rain = 0
KPD1 191720Z 13007KT 19/02 A2993 RMK A01 T01940020  RH  031%=      5-min Rain = 0
KPD1 191721Z 12005KT 20/02 A2993 RMK A01 T01960020  RH  031%=      5-min Rain = 0
KPD1 191722Z 12006KT 20/02 A2993 RMK A01 T01970022  RH  031%=      5-min Rain = 0
KPD1 191723Z 14007KT 20/02 A2993 RMK A01 T01980020  RH  031%=      5-min Rain = 0
KPD1 191724Z 12004KT 20/02 A2993 RMK A01 T01980021  RH  031%=      5-min Rain = 0
KPD1 191725Z 11006KT 20/02 A2993 RMK A01 T02000023  RH  031%=      5-min Rain = 0
KPD1 191726Z 13006KT 20/02 A2993 RMK A01 T02030024  RH  031%=      5-min Rain = 0
KPD1 191727Z 12007KT 21/02 A2993 RMK A01 T02050024  RH  030%=      5-min Rain = 0
KPD1 191728Z 12008KT 21/02 A2993 RMK A01 T02060022  RH  030%=      5-min Rain = 0
KPD1 191729Z 13007KT 21/02 A2992 RMK A01 T02060022  RH  030%=      5-min Rain = 0
KPD1 191730Z 13007KT 21/02 A2992 RMK A01 T02060022  RH  029%=      5-min Rain = 0
KPD1 191731Z 15009KT 21/02 A2992 RMK A01 T02060022  RH  030%=      5-min Rain = 0
KPD1 191732Z 13010KT 21/02 A2992 RMK A01 T02060020  RH  029%=      5-min Rain = 0
KPD1 191733Z 14009KT 21/02 A2992 RMK A01 T02060019  RH  029%=      5-min Rain = 0
KPD1 191734Z 14008KT 21/02 A2992 RMK A01 T02060019  RH  029%=      5-min Rain = 0
KPD1 191735Z 14009KT 21/02 A2992 RMK A01 T02060018  RH  029%=      5-min Rain = 0
KPD1 191736Z 15006KT 21/02 A2992 RMK A01 T02060019  RH  029%=      5-min Rain = 0
KPD1 191737Z 14011KT 21/02 A2992 RMK A01 T02070020  RH  029%=      5-min Rain = 0
KPD1 191738Z 14009KT 21/02 A2992 RMK A01 T02080019  RH  029%=      5-min Rain = 0
KPD1 191739Z 14007KT 21/02 A2992 RMK A01 T02070020  RH  029%=      5-min Rain = 0
KPD1 191740Z 15009KT 21/02 A2992 RMK A01 T02070019  RH  029%=      5-min Rain = 0
KPD1 191741Z 17008KT 21/02 A2992 RMK A01 T02080018  RH  028%=      5-min Rain = 0
KPD1 191742Z 18008KT 21/02 A2992 RMK A01 T02080015  RH  028%=      5-min Rain = 0
KPD1 191743Z 19009KT 21/01 A2992 RMK A01 T02090014  RH  027%=      5-min Rain = 0
KPD1 191744Z 18006KT 21/02 A2992 RMK A01 T02100016  RH  028%=      5-min Rain = 0
KPD1 191745Z 17010KT 21/01 A2992 RMK A01 T02110014  RH  027%=      5-min Rain = 0
KPD1 191746Z 18009KT 21/01 A2992 RMK A01 T02140012  RH  026%=      5-min Rain = 0
KPD1 191747Z 17011G18KT 22/01 A2991 RMK A01 T02170011  RH  026%=      5-min Rain = 0
KPD1 191748Z 17015G20KT 22/01 A2991 RMK A01 T02190006  RH  024%=      5-min Rain = 0
KPD1 191749Z 17013KT 22/00 A2991 RMK A01 T02200004  RH  024%=      5-min Rain = 0
KPD1 191750Z 17010KT 22/01 A2991 RMK A01 T02200005  RH  024%=      5-min Rain = 0
KPD1 191751Z 17011G16KT 22/01 A2991 RMK A01 T02210006  RH  024%=      5-min Rain = 0
KPD1 191752Z 18011KT 22/01 A2991 RMK A01 T02240007  RH  024%=      5-min Rain = 0
KPD1 191753Z 17011KT 23/01 A2991 RMK A01 T02250006  RH  023%=      5-min Rain = 0
KPD1 191754Z 16014KT 23/01 A2991 RMK A01 T02260007  RH  023%=      5-min Rain = 0
KPD1 191755Z 15014KT 23/01 A2991 RMK A01 T02260006  RH  023%=      5-min Rain = 0
KPD1 191756Z 16013KT 23/01 A2991 RMK A01 T02260005  RH  023%=      5-min Rain = 0
KPD1 191757Z 15011KT 23/01 A2991 RMK A01 T02260005  RH  023%=      5-min Rain = 0
KPD1 191758Z 17011KT 23/01 A2991 RMK A01 T02260007  RH  023%=      5-min Rain = 0
KPD1 191759Z 17015G20KT 23/01 A2991 RMK A01 T02270006  RH  023%=      5-min Rain = 0
KPD1 191800Z 17013G19KT 23/00 A2991 RMK A01 T02270004  RH  023%=      5-min Rain = 0
KPD1 191801Z 18015KT 23/00 A299 RMK A01 T02250004  RH  023%=      5-min Rain = 0
KPD1 191802Z 18011KT 23/00 A299 RMK A01 T02250003  RH  023%=      5-min Rain = 0
KPD1 191803Z 18009G14KT 23/01 A299 RMK A01 T02250005  RH  023%=      5-min Rain = 0
KPD1 191804Z 18013KT 23/01 A299 RMK A01 T02280006  RH  023%=      5-min Rain = 0
KPD1 191805Z 17011KT 23/00 A299 RMK A01 T02290003  RH  022%=      5-min Rain = 0
KPD1 191806Z 18016G21KT 23/00 A299 RMK A01 T02280001  RH  022%=      5-min Rain = 0
KPD1 191807Z 16013KT 23/00 A299 RMK A01 T02260001  RH  022%=      5-min Rain = 0
KPD1 191808Z 17012G17KT 23/00 A299 RMK A01 T02260002  RH  023%=      5-min Rain = 0
KPD1 191809Z 17013KT 23/00 A299 RMK A01 T02270002  RH  023%=      5-min Rain = 0
KPD1 191810Z 18013KT 23/00 A299 RMK A01 T02270001  RH  022%=      5-min Rain = 0
KPD1 191811Z 18012KT 23/00 A299 RMK A01 T02270001  RH  022%=      5-min Rain = 0
KPD1 191812Z 17014G19KT 23/00 A299 RMK A01 T02270002  RH  022%=      5-min Rain = 0
KPD1 191813Z 18012KT 23/00 A299 RMK A01 T022800-0  RH  022%=      5-min Rain = 0
KPD1 191814Z 19013KT 23/00 A299 RMK A01 T02270001  RH  022%=      5-min Rain = 0
KPD1 191815Z 18012KT 23/00 A299 RMK A01 T02260001  RH  022%=      5-min Rain = 0
KPD1 191816Z 18009KT 23/00 A2989 RMK A01 T02260001  RH  022%=      5-min Rain = 0
KPD1 191817Z 17011KT 23/00 A2989 RMK A01 T02270004  RH  023%=      5-min Rain = 0
KPD1 191818Z 17016KT 23/00 A2989 RMK A01 T02280003  RH  022%=      5-min Rain = 0
KPD1 191819Z 18015KT 23/00 A2989 RMK A01 T02270000  RH  022%=      5-min Rain = 0
KPD1 191820Z 19015G20KT 23/M00 A2989 RMK A01 T02251001  RH  022%=      5-min Rain = 0
KPD1 191821Z 18012KT 23/00 A2989 RMK A01 T02250000  RH  022%=      5-min Rain = 0
KPD1 191822Z 19009KT 23/00 A2989 RMK A01 T02250002  RH  023%=      5-min Rain = 0
KPD1 191823Z 19013KT 23/01 A2989 RMK A01 T02280006  RH  023%=      5-min Rain = 0
KPD1 191824Z 19011KT 23/01 A2989 RMK A01 T02320005  RH  022%=      5-min Rain = 0
KPD1 191825Z 18008KT 23/00 A2989 RMK A01 T02320003  RH  022%=      5-min Rain = 0
KPD1 191826Z 17009KT 23/01 A2989 RMK A01 T02310005  RH  022%=      5-min Rain = 0
KPD1 191827Z 18010KT 23/01 A2989 RMK A01 T02310006  RH  023%=      5-min Rain = 0
KPD1 191828Z 16014KT 23/00 A2989 RMK A01 T02310004  RH  022%=      5-min Rain = 0
KPD1 191829Z 17013KT 23/00 A2989 RMK A01 T02300003  RH  022%=      5-min Rain = 0
KPD1 191830Z 17010KT 23/00 A2989 RMK A01 T02280004  RH  023%=      5-min Rain = 0
KPD1 191831Z 18014KT 23/00 A2988 RMK A01 T02270003  RH  023%=      5-min Rain = 0
KPD1 191832Z 16013KT 23/00 A2988 RMK A01 T02280004  RH  023%=      5-min Rain = 0
KPD1 191833Z 17012KT 23/00 A2988 RMK A01 T02280004  RH  023%=      5-min Rain = 0
KPD1 191834Z 17010G16KT 23/00 A2988 RMK A01 T02280004  RH  023%=      5-min Rain = 0
KPD1 191835Z 17013KT 23/01 A2988 RMK A01 T02300006  RH  023%=      5-min Rain = 0
KPD1 191836Z 17014KT 23/00 A2988 RMK A01 T02310003  RH  022%=      5-min Rain = 0
KPD1 191837Z 19011KT 23/00 A2988 RMK A01 T02310004  RH  022%=      5-min Rain = 0
KPD1 191838Z 18010KT 23/01 A2988 RMK A01 T02320006  RH  022%=      5-min Rain = 0
KPD1 191839Z 17012KT 24/01 A2988 RMK A01 T02350008  RH  022%=      5-min Rain = 0
KPD1 191840Z 18012KT 24/00 A2988 RMK A01 T02380004  RH  021%=      5-min Rain = 0
KPD1 191841Z 17015KT 24/00 A2988 RMK A01 T02400004  RH  021%=      5-min Rain = 0
KPD1 191842Z 18018KT 24/M00 A2988 RMK A01 T02411001  RH  020%=      5-min Rain = 0
KPD1 191843Z 19014G19KT 24/M00 A2988 RMK A01 T02411004  RH  020%=      5-min Rain = 0
KPD1 191844Z 20017KT 24/M00 A2988 RMK A01 T02411004  RH  020%=      5-min Rain = 0
KPD1 191845Z 19019G25KT 24/M01 A2988 RMK A01 T02401005  RH  020%=      5-min Rain = 0
KPD1 191846Z 20015G20KT 24/M01 A2987 RMK A01 T02391005  RH  020%=      5-min Rain = 0
KPD1 191847Z 19016G22KT 24/M01 A2987 RMK A01 T02391005  RH  020%=      5-min Rain = 0
KPD1 191848Z 19017G22KT 24/M01 A2987 RMK A01 T02401006  RH  020%=      5-min Rain = 0
KPD1 191849Z 20017KT 24/M01 A2987 RMK A01 T02391005  RH  020%=      5-min Rain = 0
KPD1 191850Z 20016G22KT 24/M01 A2987 RMK A01 T02381006  RH  020%=      5-min Rain = 0
KPD1 191851Z 19015KT 24/M01 A2987 RMK A01 T02381005  RH  020%=      5-min Rain = 0
KPD1 191852Z 19013G18KT 24/M01 A2987 RMK A01 T02391005  RH  020%=      5-min Rain = 0
KPD1 191853Z 20014G19KT 24/M01 A2987 RMK A01 T02391005  RH  020%=      5-min Rain = 0
KPD1 191854Z 19011KT 24/M00 A2987 RMK A01 T02401004  RH  020%=      5-min Rain = 0
KPD1 191855Z 18011G16KT 24/M00 A2987 RMK A01 T02411003  RH  020%=      5-min Rain = 0
KPD1 191856Z 18016KT 24/M00 A2987 RMK A01 T02431002  RH  020%=      5-min Rain = 0
KPD1 191857Z 18017KT 24/M00 A2987 RMK A01 T02431004  RH  020%=      5-min Rain = 0
KPD1 191858Z 18018KT 24/M01 A2987 RMK A01 T02411006  RH  020%=      5-min Rain = 0
KPD1 191859Z 18014KT 24/M01 A2987 RMK A01 T02391007  RH  020%=      5-min Rain = 0
KPD1 191900Z 18014G21KT 24/M00 A2987 RMK A01 T02391004  RH  020%=      5-min Rain = 0
KPD1 191901Z 18020KT 24/M01 A2987 RMK A01 T02391005  RH  020%=      5-min Rain = 0
KPD1 191902Z 19017G24KT 24/M01 A2987 RMK A01 T02381006  RH  020%=      5-min Rain = 0
KPD1 191903Z 19015G20KT 24/M01 A2987 RMK A01 T02361005  RH  020%=      5-min Rain = 0
KPD1 191904Z 19013KT 24/M00 A2987 RMK A01 T02371004  RH  020%=      5-min Rain = 0
KPD1 191905Z 18012G17KT 24/M00 A2987 RMK A01 T02371004  RH  020%=      5-min Rain = 0
KPD1 191906Z 17014KT 24/M00 A2987 RMK A01 T02381004  RH  020%=      5-min Rain = 0
KPD1 191907Z 19012G18KT 24/M00 A2987 RMK A01 T02381003  RH  020%=      5-min Rain = 0
KPD1 191908Z 19012G17KT 24/M00 A2987 RMK A01 T02391003  RH  020%=      5-min Rain = 0
KPD1 191909Z 18012G18KT 24/M00 A2986 RMK A01 T02401002  RH  020%=      5-min Rain = 0
KPD1 191910Z 18014KT 24/M00 A2986 RMK A01 T02421002  RH  020%=      5-min Rain = 0
KPD1 191911Z 18014KT 24/M00 A2986 RMK A01 T02431003  RH  020%=      5-min Rain = 0
KPD1 191912Z 19013G18KT 24/M00 A2986 RMK A01 T02421004  RH  020%=      5-min Rain = 0
KPD1 191913Z 20012KT 24/M00 A2986 RMK A01 T02421002  RH  020%=      5-min Rain = 0
KPD1 191914Z 19012KT 25/00 A2986 RMK A01 T02450001  RH  020%=      5-min Rain = 0
KPD1 191915Z 18013KT 25/00 A2986 RMK A01 T02470001  RH  020%=      5-min Rain = 0
KPD1 191916Z 17016KT 25/M00 A2986 RMK A01 T02491001  RH  019%=      5-min Rain = 0
KPD1 191917Z 18015KT 25/M01 A2986 RMK A01 T02481005  RH  019%=      5-min Rain = 0
KPD1 191918Z 18016KT 25/M00 A2986 RMK A01 T02461003  RH  019%=      5-min Rain = 0
KPD1 191919Z 19016KT 25/M01 A2986 RMK A01 T02461005  RH  019%=      5-min Rain = 0
KPD1 191920Z 19012KT 25/M00 A2986 RMK A01 T02451003  RH  019%=      5-min Rain = 0
KPD1 191921Z 19015KT 25/M00 A2986 RMK A01 T02471002  RH  019%=      5-min Rain = 0
KPD1 191922Z 21012G17KT 25/M00 A2986 RMK A01 T02481003  RH  019%=      5-min Rain = 0
KPD1 191923Z 19013KT 25/M00 A2986 RMK A01 T02501002  RH  019%=      5-min Rain = 0
KPD1 191924Z 20013KT 25/M00 A2986 RMK A01 T02511002  RH  019%=      5-min Rain = 0
KPD1 191925Z 19013KT 25/M00 A2986 RMK A01 T02511003  RH  019%=      5-min Rain = 0
KPD1 191926Z 20014KT 25/M00 A2986 RMK A01 T02511003  RH  019%=      5-min Rain = 0
KPD1 191927Z 18016G21KT 25/M00 A2985 RMK A01 T02521004  RH  019%=      5-min Rain = 0
KPD1 191928Z 18016G22KT 25/M01 A2985 RMK A01 T02521005  RH  018%=      5-min Rain = 0
KPD1 191929Z 18016G23KT 25/M00 A2985 RMK A01 T02521004  RH  019%=      5-min Rain = 0
KPD1 191930Z 19016KT 25/M01 A2985 RMK A01 T02521005  RH  018%=      5-min Rain = 0
KPD1 191931Z 20014G22KT 25/M00 A2985 RMK A01 T02531004  RH  018%=      5-min Rain = 0
KPD1 191932Z 21014G19KT 25/M01 A2985 RMK A01 T02521005  RH  018%=      5-min Rain = 0
KPD1 191933Z 20016KT 25/M01 A2985 RMK A01 T02521005  RH  018%=      5-min Rain = 0
KPD1 191934Z 18014G19KT 25/M01 A2985 RMK A01 T02511005  RH  019%=      5-min Rain = 0
KPD1 191935Z 19018G23KT 25/M00 A2985 RMK A01 T02521004  RH  018%=      5-min Rain = 0
KPD1 191936Z 18021KT 25/M01 A2985 RMK A01 T02521008  RH  018%=      5-min Rain = 0
KPD1 191937Z 20016G22KT 25/M01 A2985 RMK A01 T02511009  RH  018%=      5-min Rain = 0
KPD1 191938Z 20016KT 25/M01 A2985 RMK A01 T02511007  RH  018%=      5-min Rain = 0
KPD1 191939Z 20015G22KT 25/M01 A2985 RMK A01 T02521006  RH  018%=      5-min Rain = 0
KPD1 191940Z 19019G24KT 25/M01 A2985 RMK A01 T02531006  RH  018%=      5-min Rain = 0
KPD1 191941Z 19017KT 25/M01 A2985 RMK A01 T02521009  RH  018%=      5-min Rain = 0
KPD1 191942Z 18019G24KT 25/M01 A2985 RMK A01 T02491009  RH  018%=      5-min Rain = 0
KPD1 191943Z 20017G22KT 25/M01 A2985 RMK A01 T02491009  RH  018%=      5-min Rain = 0
KPD1 191944Z 19012KT 25/M01 A2985 RMK A01 T02491009  RH  018%=      5-min Rain = 0
KPD1 191945Z 19016KT 25/M01 A2984 RMK A01 T02501008  RH  018%=      5-min Rain = 0
KPD1 191946Z 19016G24KT 25/M01 A2984 RMK A01 T02511009  RH  018%=      5-min Rain = 0
KPD1 191947Z 19019KT 25/M01 A2984 RMK A01 T02511008  RH  018%=      5-min Rain = 0
KPD1 191948Z 19017G22KT 25/M01 A2984 RMK A01 T02501009  RH  018%=      5-min Rain = 0
KPD1 191949Z 19016KT 25/M01 A2984 RMK A01 T02501009  RH  018%=      5-min Rain = 0
KPD1 191950Z 20015KT 25/M01 A2984 RMK A01 T02501007  RH  018%=      5-min Rain = 0
KPD1 191951Z 20017G23KT 25/M01 A2984 RMK A01 T02511007  RH  018%=      5-min Rain = 0
KPD1 191952Z 19018G24KT 25/M01 A2984 RMK A01 T02521008  RH  018%=      5-min Rain = 0
KPD1 191953Z 19021KT 25/M01 A2984 RMK A01 T02511008  RH  018%=      5-min Rain = 0
KPD1 191954Z 20015G21KT 25/M01 A2984 RMK A01 T02491010  RH  018%=      5-min Rain = 0
KPD1 191955Z 19018KT 25/M01 A2984 RMK A01 T02491008  RH  018%=      5-min Rain = 0
KPD1 191956Z 19016KT 25/M01 A2984 RMK A01 T02491009  RH  018%=      5-min Rain = 0
KPD1 191957Z 19014G21KT 25/M01 A2984 RMK A01 T02491008  RH  018%=      5-min Rain = 0
KPD1 191958Z 19019G24KT 25/M01 A2984 RMK A01 T02501008  RH  018%=      5-min Rain = 0
KPD1 191959Z 19018G23KT 25/M01 A2984 RMK A01 T02491008  RH  018%=      5-min Rain = 0
KPD1 192000Z 18015KT 25/M01 A2984 RMK A01 T02491006  RH  019%=      5-min Rain = 0
KPD1 192001Z 19016KT 25/M01 A2984 RMK A01 T02511006  RH  018%=      5-min Rain = 0
KPD1 192002Z 19019KT 25/M01 A2984 RMK A01 T02521006  RH  018%=      5-min Rain = 0
KPD1 192003Z 19018KT 25/M01 A2983 RMK A01 T02511008  RH  018%=      5-min Rain = 0
KPD1 192004Z 18015KT 25/M01 A2983 RMK A01 T02501007  RH  018%=      5-min Rain = 0
KPD1 192005Z 19015G20KT 25/M01 A2983 RMK A01 T02511006  RH  018%=      5-min Rain = 0
KPD1 192006Z 20017KT 25/M01 A2983 RMK A01 T02511007  RH  018%=      5-min Rain = 0
KPD1 192007Z 20017G22KT 25/M01 A2983 RMK A01 T02511008  RH  018%=      5-min Rain = 0
KPD1 192008Z 19014G21KT 25/M01 A2983 RMK A01 T02511007  RH  018%=      5-min Rain = 0
KPD1 192009Z 18015KT 25/M01 A2983 RMK A01 T02521007  RH  018%=      5-min Rain = 0
KPD1 192010Z 18014KT 25/M01 A2983 RMK A01 T02521006  RH  018%=      5-min Rain = 0
KPD1 192011Z 17013KT 25/M01 A2983 RMK A01 T02521005  RH  018%=      5-min Rain = 0
KPD1 192012Z 19015G20KT 25/M01 A2983 RMK A01 T02531006  RH  018%=      5-min Rain = 0
KPD1 192013Z 19015G22KT 25/M01 A2983 RMK A01 T02521006  RH  018%=      5-min Rain = 0
KPD1 192014Z 19017KT 25/M01 A2983 RMK A01 T02531006  RH  018%=      5-min Rain = 0
KPD1 192015Z 18018KT 25/M01 A2983 RMK A01 T02531007  RH  018%=      5-min Rain = 0
KPD1 192016Z 19016G24KT 25/M01 A2983 RMK A01 T02521008  RH  018%=      5-min Rain = 0
KPD1 192017Z 19022KT 25/M01 A2982 RMK A01 T02511007  RH  018%=      5-min Rain = 0
KPD1 192018Z 19018G23KT 25/M01 A2983 RMK A01 T02501008  RH  018%=      5-min Rain = 0
KPD1 192019Z 19014KT 25/M01 A2983 RMK A01 T02501006  RH  018%=      5-min Rain = 0
KPD1 192020Z 19014G24KT 25/M01 A2982 RMK A01 T02501005  RH  019%=      5-min Rain = 0
KPD1 192021Z 19020KT 25/M01 A2982 RMK A01 T02511006  RH  018%=      5-min Rain = 0
KPD1 192022Z 20019KT 25/M01 A2982 RMK A01 T02511007  RH  018%=      5-min Rain = 0
KPD1 192023Z 19017KT 25/M01 A2983 RMK A01 T02501008  RH  018%=      5-min Rain = 0
KPD1 192024Z 20015G23KT 25/M01 A2982 RMK A01 T02501007  RH  018%=      5-min Rain = 0
KPD1 192025Z 19019G27KT 25/M01 A2982 RMK A01 T02501007  RH  018%=      5-min Rain = 0
KPD1 192026Z 20013KT 25/M01 A2982 RMK A01 T02491007  RH  019%=      5-min Rain = 0
KPD1 192027Z 19019G25KT 25/M01 A2982 RMK A01 T02491006  RH  019%=      5-min Rain = 0
KPD1 192028Z 19014G19KT 25/M01 A2983 RMK A01 T02491007  RH  018%=      5-min Rain = 0
KPD1 192029Z 20018G23KT 25/M01 A2982 RMK A01 T02501006  RH  018%=      5-min Rain = 0
KPD1 192030Z 20018G26KT 25/M01 A2982 RMK A01 T02501006  RH  018%=      5-min Rain = 0
KPD1 192031Z 19018G23KT 25/M01 A2982 RMK A01 T02491006  RH  019%=      5-min Rain = 0
KPD1 192032Z 20019KT 25/M01 A2982 RMK A01 T02491005  RH  019%=      5-min Rain = 0
KPD1 192033Z 20014KT 25/M00 A2982 RMK A01 T02501004  RH  019%=      5-min Rain = 0
KPD1 192034Z 19014G19KT 25/M00 A2982 RMK A01 T02511004  RH  019%=      5-min Rain = 0
KPD1 192035Z 19017G23KT 25/M01 A2982 RMK A01 T02521005  RH  018%=      5-min Rain = 0
KPD1 192036Z 21016KT 25/M01 A2982 RMK A01 T02511007  RH  018%=      5-min Rain = 0
KPD1 192037Z 21016KT 25/M01 A2982 RMK A01 T02491008  RH  018%=      5-min Rain = 0
KPD1 192038Z 20018KT 25/M01 A2982 RMK A01 T02481008  RH  018%=      5-min Rain = 0
KPD1 192039Z 20017G22KT 25/M01 A2982 RMK A01 T02481007  RH  019%=      5-min Rain = 0
KPD1 192040Z 20015G20KT 25/M01 A2982 RMK A01 T02491006  RH  019%=      5-min Rain = 0
KPD1 192041Z 20020KT 25/M01 A2982 RMK A01 T02501007  RH  018%=      5-min Rain = 0
KPD1 192042Z 20017G22KT 25/M01 A2982 RMK A01 T02491009  RH  018%=      5-min Rain = 0
KPD1 192043Z 19014G19KT 25/M01 A2982 RMK A01 T02481008  RH  018%=      5-min Rain = 0
KPD1 192044Z 20016KT 25/M01 A2982 RMK A01 T02481007  RH  019%=      5-min Rain = 0
KPD1 192045Z 18017KT 25/M01 A2982 RMK A01 T02491007  RH  018%=      5-min Rain = 0
KPD1 192046Z 18017KT 25/M01 A2982 RMK A01 T02491008  RH  018%=      5-min Rain = 0
KPD1 192047Z 19017G24KT 25/M01 A2982 RMK A01 T02491007  RH  018%=      5-min Rain = 0
KPD1 192048Z 18015KT 25/M01 A2981 RMK A01 T02491006  RH  019%=      5-min Rain = 0
KPD1 192049Z 19019G24KT 25/M01 A2981 RMK A01 T02491006  RH  019%=      5-min Rain = 0
KPD1 192050Z 18018G23KT 25/M01 A2982 RMK A01 T02491007  RH  018%=      5-min Rain = 0
KPD1 192051Z 19016G22KT 25/M01 A2981 RMK A01 T02491007  RH  018%=      5-min Rain = 0
KPD1 192052Z 18016G24KT 25/M01 A2981 RMK A01 T02481007  RH  019%=      5-min Rain = 0
KPD1 192053Z 19018KT 25/M01 A2981 RMK A01 T02481007  RH  019%=      5-min Rain = 0
KPD1 192054Z 19016G21KT 25/M01 A2981 RMK A01 T02491006  RH  019%=      5-min Rain = 0
KPD1 192055Z 18016G21KT 25/M01 A2981 RMK A01 T02491007  RH  018%=      5-min Rain = 0
KPD1 192056Z 19015KT 25/M01 A2981 RMK A01 T02491006  RH  019%=      5-min Rain = 0
KPD1 192057Z 20015KT 25/M01 A2981 RMK A01 T02491006  RH  019%=      5-min Rain = 0
KPD1 192058Z 21016G22KT 25/M01 A2981 RMK A01 T02491006  RH  019%=      5-min Rain = 0
KPD1 192059Z 19018G23KT 25/M01 A2981 RMK A01 T02501006  RH  018%=      5-min Rain = 0
KPD1 192100Z 20017KT 25/M01 A2981 RMK A01 T02501007  RH  018%=      5-min Rain = 0
KPD1 192101Z 20018KT 25/M01 A2981 RMK A01 T02501007  RH  018%=      5-min Rain = 0
KPD1 192102Z 19014KT 25/M01 A2981 RMK A01 T02491007  RH  018%=      5-min Rain = 0
KPD1 192103Z 18015KT 25/M01 A2981 RMK A01 T02491007  RH  018%=      5-min Rain = 0
KPD1 192104Z 18014KT 25/M01 A2981 RMK A01 T02501006  RH  018%=      5-min Rain = 0
KPD1 192105Z 19015KT 25/M01 A2981 RMK A01 T02521006  RH  018%=      5-min Rain = 0
KPD1 192106Z 21017KT 25/M01 A2981 RMK A01 T02521007  RH  018%=      5-min Rain = 0
KPD1 192107Z 19013KT 25/M01 A2981 RMK A01 T02521007  RH  018%=      5-min Rain = 0
KPD1 192108Z 19014G21KT 25/M01 A2981 RMK A01 T02511007  RH  018%=      5-min Rain = 0
KPD1 192109Z 18020KT 25/M01 A2981 RMK A01 T02521007  RH  018%=      5-min Rain = 0
KPD1 192110Z 20017G22KT 25/M01 A2981 RMK A01 T02511009  RH  018%=      5-min Rain = 0
KPD1 192111Z 19015KT 25/M01 A2981 RMK A01 T02511009  RH  018%=      5-min Rain = 0
KPD1 192112Z 19013G19KT 25/M01 A2981 RMK A01 T02501009  RH  018%=      5-min Rain = 0
KPD1 192113Z 19016KT 25/M01 A2981 RMK A01 T02511009  RH  018%=      5-min Rain = 0
KPD1 192114Z 18015G20KT 25/M01 A2981 RMK A01 T02511009  RH  018%=      5-min Rain = 0
KPD1 192115Z 18015KT 25/M01 A2981 RMK A01 T02511009  RH  018%=      5-min Rain = 0
KPD1 192116Z 18013KT 25/M01 A2981 RMK A01 T02511009  RH  018%=      5-min Rain = 0
KPD1 192117Z 18017KT 25/M01 A2981 RMK A01 T02511010  RH  018%=      5-min Rain = 0
KPD1 192118Z 18017KT 25/M01 A2981 RMK A01 T02501010  RH  018%=      5-min Rain = 0
KPD1 192119Z 19016KT 25/M01 A2981 RMK A01 T02501010  RH  018%=      5-min Rain = 0
KPD1 192120Z 19014G19KT 25/M01 A2981 RMK A01 T02501010  RH  018%=      5-min Rain = 0
KPD1 192121Z 20018G26KT 25/M01 A2981 RMK A01 T02491011  RH  018%=      5-min Rain = 0
KPD1 192122Z 20018G25KT 25/M01 A2981 RMK A01 T02501010  RH  018%=      5-min Rain = 0
KPD1 192123Z 20018KT 25/M01 A2981 RMK A01 T02491010  RH  018%=      5-min Rain = 0
KPD1 192124Z 19016G21KT 25/M01 A2981 RMK A01 T02491010  RH  018%=      5-min Rain = 0
KPD1 192125Z 19018G23KT 25/M01 A2981 RMK A01 T02481010  RH  018%=      5-min Rain = 0
KPD1 192126Z 19015G20KT 25/M01 A2981 RMK A01 T02481010  RH  018%=      5-min Rain = 0
KPD1 192127Z 19015KT 25/M01 A2981 RMK A01 T02481010  RH  018%=      5-min Rain = 0
KPD1 192128Z 19013G18KT 25/M01 A2981 RMK A01 T02481010  RH  018%=      5-min Rain = 0
KPD1 192129Z 19013KT 25/M01 A2981 RMK A01 T02491009  RH  018%=      5-min Rain = 0
KPD1 192130Z 18010KT 25/M01 A2981 RMK A01 T02501008  RH  018%=      5-min Rain = 0
KPD1 192131Z 19014G20KT 25/M01 A2981 RMK A01 T02511007  RH  018%=      5-min Rain = 0
KPD1 192132Z 19016KT 25/M01 A2981 RMK A01 T02521009  RH  018%=      5-min Rain = 0
KPD1 192133Z 19015G21KT 25/M01 A2981 RMK A01 T02511009  RH  018%=      5-min Rain = 0
KPD1 192134Z 18016KT 25/M01 A2981 RMK A01 T02511009  RH  018%=      5-min Rain = 0
KPD1 192135Z 19016KT 25/M01 A2981 RMK A01 T02501010  RH  018%=      5-min Rain = 0
KPD1 192136Z 19015KT 25/M01 A2981 RMK A01 T02501010  RH  018%=      5-min Rain = 0
KPD1 192137Z 20014G19KT 25/M01 A2981 RMK A01 T02501010  RH  018%=      5-min Rain = 0
KPD1 192138Z 19015KT 25/M01 A2981 RMK A01 T02501010  RH  018%=      5-min Rain = 0
KPD1 192139Z 19014KT 25/M01 A2981 RMK A01 T02501009  RH  018%=      5-min Rain = 0
KPD1 192140Z 19015KT 25/M01 A2981 RMK A01 T02511010  RH  018%=      5-min Rain = 0
KPD1 192141Z 20016G23KT 25/M01 A2981 RMK A01 T02501010  RH  018%=      5-min Rain = 0
KPD1 192142Z 18016G22KT 25/M01 A2981 RMK A01 T02491010  RH  018%=      5-min Rain = 0
KPD1 192143Z 20014KT 25/M01 A2981 RMK A01 T02491010  RH  018%=      5-min Rain = 0
KPD1 192144Z 19015G23KT 25/M01 A2981 RMK A01 T02481009  RH  018%=      5-min Rain = 0
KPD1 192145Z 18016KT 25/M01 A2981 RMK A01 T02481010  RH  018%=      5-min Rain = 0
KPD1 192146Z 18015KT 25/M01 A2981 RMK A01 T02471011  RH  018%=      5-min Rain = 0
KPD1 192147Z 20013G18KT 25/M01 A2981 RMK A01 T02461012  RH  018%=      5-min Rain = 0
KPD1 192148Z 20016G24KT 25/M01 A2981 RMK A01 T02451011  RH  018%=      5-min Rain = 0
KPD1 192149Z 19016G22KT 25/M01 A2981 RMK A01 T02451013  RH  018%=      5-min Rain = 0
KPD1 192150Z 19015KT 24/M01 A2981 RMK A01 T02441013  RH  018%=      5-min Rain = 0
KPD1 192151Z 19016KT 24/M01 A2981 RMK A01 T02441013  RH  018%=      5-min Rain = 0
KPD1 192152Z 19013G18KT 24/M01 A2981 RMK A01 T02431013  RH  018%=      5-min Rain = 0
KPD1 192153Z 18013KT 24/M01 A2981 RMK A01 T02431013  RH  018%=      5-min Rain = 0
KPD1 192154Z 19013KT 24/M01 A2981 RMK A01 T02431012  RH  018%=      5-min Rain = 0
KPD1 192155Z 20012KT 24/M01 A2981 RMK A01 T02441012  RH  018%=      5-min Rain = 0
KPD1 192156Z 17012G18KT 24/M01 A2981 RMK A01 T02441012  RH  018%=      5-min Rain = 0
KPD1 192157Z 18012KT 24/M01 A2981 RMK A01 T02441011  RH  018%=      5-min Rain = 0
KPD1 192158Z 19012KT 24/M01 A298 RMK A01 T02441011  RH  018%=      5-min Rain = 0
KPD1 192159Z 19017KT 25/M01 A298 RMK A01 T02451010  RH  018%=      5-min Rain = 0
KPD1 192200Z 20014KT 24/M01 A298 RMK A01 T02441011  RH  019%=      5-min Rain = 0
KPD1 192201Z 20013KT 24/M01 A298 RMK A01 T02431010  RH  019%=      5-min Rain = 0
KPD1 192202Z 18012KT 24/M01 A298 RMK A01 T02431009  RH  019%=      5-min Rain = 0
KPD1 192203Z 17015KT 24/M01 A298 RMK A01 T02431009  RH  019%=      5-min Rain = 0
KPD1 192204Z 17017KT 24/M01 A298 RMK A01 T02431009  RH  019%=      5-min Rain = 0
KPD1 192205Z 18012KT 24/M01 A298 RMK A01 T02411009  RH  019%=      5-min Rain = 0
KPD1 192206Z 19014KT 24/M01 A298 RMK A01 T02411007  RH  019%=      5-min Rain = 0
KPD1 192207Z 20014KT 24/M01 A298 RMK A01 T02411007  RH  019%=      5-min Rain = 0
KPD1 192208Z 19015G20KT 24/M01 A298 RMK A01 T02411008  RH  019%=      5-min Rain = 0
KPD1 192209Z 19015KT 24/M01 A2981 RMK A01 T02401009  RH  019%=      5-min Rain = 0
KPD1 192210Z 19016KT 24/M01 A2981 RMK A01 T02391009  RH  019%=      5-min Rain = 0
KPD1 192211Z 18012KT 24/M01 A2981 RMK A01 T02391009  RH  019%=      5-min Rain = 0
KPD1 192212Z 17011G16KT 24/M01 A2981 RMK A01 T02391008  RH  019%=      5-min Rain = 0
KPD1 192213Z 18014KT 24/M01 A2981 RMK A01 T02391008  RH  019%=      5-min Rain = 0
KPD1 192214Z 19013G18KT 24/M01 A2981 RMK A01 T02381009  RH  019%=      5-min Rain = 0
KPD1 192215Z 18010G15KT 24/M01 A2981 RMK A01 T02371009  RH  019%=      5-min Rain = 0
KPD1 192216Z 18012G17KT 24/M01 A2981 RMK A01 T02361009  RH  020%=      5-min Rain = 0
KPD1 192217Z 19010KT 24/M01 A2981 RMK A01 T02361009  RH  020%=      5-min Rain = 0
KPD1 192218Z 19009KT 24/M01 A2981 RMK A01 T02361008  RH  020%=      5-min Rain = 0
KPD1 192219Z 19011KT 24/M01 A2981 RMK A01 T02361008  RH  020%=      5-min Rain = 0
KPD1 192220Z 19012KT 24/M01 A2981 RMK A01 T02361008  RH  020%=      5-min Rain = 0
KPD1 192221Z 18010KT 24/M01 A2981 RMK A01 T02361008  RH  020%=      5-min Rain = 0
KPD1 192222Z 19009KT 24/M01 A2981 RMK A01 T02351007  RH  020%=      5-min Rain = 0
KPD1 192223Z 19011KT 24/M01 A2981 RMK A01 T02351008  RH  020%=      5-min Rain = 0
KPD1 192224Z 19010KT 24/M01 A2981 RMK A01 T02351009  RH  020%=      5-min Rain = 0
KPD1 192225Z 19010G16KT 24/M01 A2981 RMK A01 T02351008  RH  020%=      5-min Rain = 0
KPD1 192226Z 19011KT 23/M01 A2981 RMK A01 T02341008  RH  020%=      5-min Rain = 0
KPD1 192227Z 19009KT 24/M01 A2981 RMK A01 T02351009  RH  020%=      5-min Rain = 0
KPD1 192228Z 18011KT 23/M01 A298 RMK A01 T02341008  RH  020%=      5-min Rain = 0
KPD1 192229Z 19011KT 23/M01 A298 RMK A01 T02341010  RH  020%=      5-min Rain = 0
KPD1 192230Z 18012KT 24/M01 A298 RMK A01 T02351009  RH  020%=      5-min Rain = 0
KPD1 192231Z 18014KT 24/M01 A298 RMK A01 T02351009  RH  020%=      5-min Rain = 0
KPD1 192232Z 19014KT 24/M01 A298 RMK A01 T02351010  RH  020%=      5-min Rain = 0
KPD1 192233Z 19011G16KT 24/M01 A298 RMK A01 T02351010  RH  020%=      5-min Rain = 0
KPD1 192234Z 18013KT 24/M01 A298 RMK A01 T02361009  RH  020%=      5-min Rain = 0
KPD1 192235Z 18010KT 24/M01 A298 RMK A01 T02361009  RH  020%=      5-min Rain = 0
KPD1 192236Z 18012KT 24/M01 A298 RMK A01 T02361009  RH  020%=      5-min Rain = 0
KPD1 192237Z 18010KT 24/M01 A298 RMK A01 T02361009  RH  020%=      5-min Rain = 0
KPD1 192238Z 19013KT 24/M01 A298 RMK A01 T02361008  RH  020%=      5-min Rain = 0
KPD1 192239Z 18014KT 24/M01 A298 RMK A01 T02361008  RH  020%=      5-min Rain = 0
KPD1 192240Z 18013KT 24/M01 A298 RMK A01 T02361009  RH  020%=      5-min Rain = 0
KPD1 192241Z 18012KT 24/M01 A298 RMK A01 T02361009  RH  020%=      5-min Rain = 0
KPD1 192242Z 18013KT 24/M01 A298 RMK A01 T02361008  RH  020%=      5-min Rain = 0
KPD1 192243Z 19015KT 24/M01 A298 RMK A01 T02361009  RH  020%=      5-min Rain = 0
KPD1 192244Z 19013KT 24/M01 A298 RMK A01 T02351009  RH  020%=      5-min Rain = 0
KPD1 192245Z 19009KT 24/M01 A298 RMK A01 T02351008  RH  020%=      5-min Rain = 0
KPD1 192246Z 19010KT 24/M01 A298 RMK A01 T02351007  RH  020%=      5-min Rain = 0
KPD1 192247Z 18010KT 24/M01 A298 RMK A01 T02351007  RH  020%=      5-min Rain = 0
KPD1 192248Z 18013KT 23/M01 A298 RMK A01 T02341008  RH  020%=      5-min Rain = 0
KPD1 192249Z 18013KT 23/M01 A298 RMK A01 T02341009  RH  020%=      5-min Rain = 0
KPD1 192250Z 18012KT 23/M01 A298 RMK A01 T02341009  RH  020%=      5-min Rain = 0
KPD1 192251Z 18012KT 23/M01 A298 RMK A01 T02331009  RH  020%=      5-min Rain = 0
KPD1 192252Z 18010KT 23/M01 A298 RMK A01 T02331009  RH  020%=      5-min Rain = 0
KPD1 192253Z 18009KT 23/M01 A298 RMK A01 T02331009  RH  020%=      5-min Rain = 0
KPD1 192254Z 18009KT 23/M01 A298 RMK A01 T02321009  RH  020%=      5-min Rain = 0
KPD1 192255Z 18008KT 23/M01 A298 RMK A01 T02321009  RH  020%=      5-min Rain = 0
KPD1 192256Z 18009KT 23/M01 A298 RMK A01 T02321008  RH  020%=      5-min Rain = 0
KPD1 192257Z 18007KT 23/M01 A298 RMK A01 T02311008  RH  020%=      5-min Rain = 0
KPD1 192258Z 17008KT 23/M01 A298 RMK A01 T02301008  RH  020%=      5-min Rain = 0
KPD1 192259Z 18008KT 23/M01 A298 RMK A01 T02291009  RH  020%=      5-min Rain = 0
KPD1 192300Z 17008KT 23/M01 A298 RMK A01 T02291008  RH  021%=      5-min Rain = 0
KPD1 192301Z 17009KT 23/M01 A298 RMK A01 T02291009  RH  021%=      5-min Rain = 0
KPD1 192302Z 17008KT 23/M01 A298 RMK A01 T02281009  RH  021%=      5-min Rain = 0
KPD1 192303Z 17010KT 23/M01 A298 RMK A01 T02291009  RH  021%=      5-min Rain = 0
KPD1 192304Z 16009KT 23/M01 A298 RMK A01 T02291009  RH  021%=      5-min Rain = 0
KPD1 192305Z 17009KT 23/M01 A298 RMK A01 T02291008  RH  021%=      5-min Rain = 0
KPD1 192306Z 17009KT 23/M01 A298 RMK A01 T02281009  RH  021%=      5-min Rain = 0
KPD1 192307Z 17008KT 23/M01 A298 RMK A01 T02281009  RH  021%=      5-min Rain = 0
KPD1 192308Z 17009KT 23/M01 A298 RMK A01 T02271008  RH  021%=      5-min Rain = 0
KPD1 192309Z 17007KT 23/M01 A298 RMK A01 T02271008  RH  021%=      5-min Rain = 0
KPD1 192310Z 16008KT 23/M01 A298 RMK A01 T02261008  RH  021%=      5-min Rain = 0
KPD1 192311Z 16008KT 23/M01 A298 RMK A01 T02261008  RH  021%=      5-min Rain = 0
KPD1 192312Z 17008KT 23/M01 A298 RMK A01 T02251007  RH  021%=      5-min Rain = 0
KPD1 192313Z 16008KT 22/M01 A298 RMK A01 T02241007  RH  021%=      5-min Rain = 0
KPD1 192314Z 16008KT 22/M01 A298 RMK A01 T02231007  RH  021%=      5-min Rain = 0
KPD1 192315Z 16009KT 22/M01 A298 RMK A01 T02221008  RH  022%=      5-min Rain = 0
KPD1 192316Z 16008KT 22/M01 A298 RMK A01 T02221007  RH  022%=      5-min Rain = 0
KPD1 192317Z 16009KT 22/M01 A2979 RMK A01 T02211007  RH  022%=      5-min Rain = 0
KPD1 192318Z 16010KT 22/M01 A298 RMK A01 T02201008  RH  022%=      5-min Rain = 0
KPD1 192319Z 16009KT 22/M01 A2979 RMK A01 T02201008  RH  022%=      5-min Rain = 0
KPD1 192320Z 16010KT 22/M01 A2979 RMK A01 T02201007  RH  022%=      5-min Rain = 0
KPD1 192321Z 16010KT 22/M01 A2979 RMK A01 T02191008  RH  022%=      5-min Rain = 0
KPD1 192322Z 16010KT 22/M01 A2979 RMK A01 T02181007  RH  022%=      5-min Rain = 0
KPD1 192323Z 16009KT 22/M01 A2979 RMK A01 T02171008  RH  022%=      5-min Rain = 0
KPD1 192324Z 16009KT 22/M01 A2979 RMK A01 T02171008  RH  022%=      5-min Rain = 0
KPD1 192325Z 17010KT 22/M01 A2979 RMK A01 T02171008  RH  022%=      5-min Rain = 0
KPD1 192326Z 17009KT 22/M01 A2979 RMK A01 T02161007  RH  022%=      5-min Rain = 0
KPD1 192327Z 17009KT 22/M01 A298 RMK A01 T02161007  RH  023%=      5-min Rain = 0
KPD1 192328Z 17007KT 22/M01 A298 RMK A01 T02151007  RH  023%=      5-min Rain = 0
KPD1 192329Z 16009KT 21/M01 A298 RMK A01 T02141007  RH  023%=      5-min Rain = 0
KPD1 192330Z 17009KT 21/M01 A298 RMK A01 T02131007  RH  023%=      5-min Rain = 0
KPD1 192331Z 16008KT 21/M01 A298 RMK A01 T02131007  RH  023%=      5-min Rain = 0
KPD1 192332Z 16009KT 21/M01 A298 RMK A01 T02131007  RH  023%=      5-min Rain = 0
KPD1 192333Z 17009KT 21/M01 A298 RMK A01 T02121007  RH  023%=      5-min Rain = 0
KPD1 192334Z 16010KT 21/M01 A298 RMK A01 T02111007  RH  023%=      5-min Rain = 0
KPD1 192335Z 17008KT 21/M01 A298 RMK A01 T02111008  RH  023%=      5-min Rain = 0
KPD1 192336Z 16008KT 21/M01 A298 RMK A01 T02101008  RH  023%=      5-min Rain = 0
KPD1 192337Z 17009KT 21/M01 A298 RMK A01 T02101008  RH  023%=      5-min Rain = 0
KPD1 192338Z 16008KT 21/M01 A298 RMK A01 T02091008  RH  023%=      5-min Rain = 0
KPD1 192339Z 17008KT 21/M01 A298 RMK A01 T02091008  RH  023%=      5-min Rain = 0
KPD1 192340Z 17008KT 21/M01 A298 RMK A01 T02081008  RH  024%=      5-min Rain = 0
KPD1 192341Z 17009KT 21/M01 A298 RMK A01 T02081008  RH  024%=      5-min Rain = 0
KPD1 192342Z 17009KT 21/M01 A298 RMK A01 T02071009  RH  024%=      5-min Rain = 0
KPD1 192343Z 16008KT 21/M01 A298 RMK A01 T02071008  RH  024%=      5-min Rain = 0
KPD1 192344Z 17008KT 21/M01 A298 RMK A01 T02061008  RH  024%=      5-min Rain = 0
KPD1 192345Z 16010KT 21/M01 A298 RMK A01 T02051009  RH  024%=      5-min Rain = 0
KPD1 192346Z 18008KT 21/M01 A298 RMK A01 T02061010  RH  023%=      5-min Rain = 0
KPD1 192347Z 16009KT 21/M01 A298 RMK A01 T02061011  RH  023%=      5-min Rain = 0
KPD1 192348Z 17008KT 21/M01 A298 RMK A01 T02061010  RH  023%=      5-min Rain = 0
KPD1 192349Z 17006KT 21/M01 A298 RMK A01 T02051010  RH  024%=      5-min Rain = 0
KPD1 192350Z 17009KT 20/M01 A298 RMK A01 T02041010  RH  024%=      5-min Rain = 0
KPD1 192351Z 17010KT 20/M01 A298 RMK A01 T02041010  RH  024%=      5-min Rain = 0
KPD1 192352Z 17008KT 20/M01 A298 RMK A01 T02041010  RH  024%=      5-min Rain = 0
KPD1 192353Z 17011KT 20/M01 A298 RMK A01 T02031010  RH  024%=      5-min Rain = 0
KPD1 192354Z 17011KT 20/M01 A298 RMK A01 T02031010  RH  024%=      5-min Rain = 0
KPD1 192355Z 17009KT 20/M01 A298 RMK A01 T02031010  RH  024%=      5-min Rain = 0
KPD1 192356Z 17010KT 20/M01 A298 RMK A01 T02031011  RH  024%=      5-min Rain = 0
KPD1 192357Z 18010KT 20/M01 A298 RMK A01 T02031010  RH  024%=      5-min Rain = 0
KPD1 192358Z 17010KT 20/M01 A298 RMK A01 T02021010  RH  024%=      5-min Rain = 0
KPD1 192359Z 17010KT 20/M01 A298 RMK A01 T02021010  RH  024%=      5-min Rain = 0
KPD1 200000Z 18008KT 20/M01 A298 RMK A01 T02031010  RH  024%=      5-min Rain = 0
KPD1 200001Z 17008KT 20/M01 A298 RMK A01 T02021010  RH  024%=      5-min Rain = 0
KPD1 200002Z 17011KT 20/M01 A298 RMK A01 T02021010  RH  024%=      5-min Rain = 0
KPD1 200003Z 17010G15KT 20/M01 A298 RMK A01 T02021010  RH  024%=      5-min Rain = 0
KPD1 200004Z 17011KT 20/M01 A298 RMK A01 T02021010  RH  024%=      5-min Rain = 0
KPD1 200005Z 17012KT 20/M01 A298 RMK A01 T02011010  RH  024%=      5-min Rain = 0
KPD1 200006Z 17010KT 20/M01 A2981 RMK A01 T02021010  RH  024%=      5-min Rain = 0
KPD1 200007Z 17010KT 20/M01 A2981 RMK A01 T02011010  RH  024%=      5-min Rain = 0
KPD1 200008Z 17008KT 20/M01 A2981 RMK A01 T02011010  RH  024%=      5-min Rain = 0
KPD1 200009Z 17009KT 20/M01 A2981 RMK A01 T02001010  RH  024%=      5-min Rain = 0
KPD1 200010Z 17009KT 20/M01 A2981 RMK A01 T01991010  RH  024%=      5-min Rain = 0
KPD1 200011Z 18010KT 20/M01 A2981 RMK A01 T01991010  RH  024%=      5-min Rain = 0
KPD1 200012Z 17011KT 20/M01 A2981 RMK A01 T01991010  RH  024%=      5-min Rain = 0
KPD1 200013Z 17009KT 20/M01 A2981 RMK A01 T01991010  RH  025%=      5-min Rain = 0
KPD1 200014Z 17012KT 20/M01 A2981 RMK A01 T01991010  RH  025%=      5-min Rain = 0
KPD1 200015Z 17010KT 20/M01 A2981 RMK A01 T01991010  RH  024%=      5-min Rain = 0
KPD1 200016Z 17010KT 20/M01 A2981 RMK A01 T01991010  RH  025%=      5-min Rain = 0
KPD1 200017Z 17011KT 20/M01 A2981 RMK A01 T01981010  RH  025%=      5-min Rain = 0
KPD1 200018Z 17013KT 20/M01 A2981 RMK A01 T01971010  RH  025%=      5-min Rain = 0
KPD1 200019Z 17011KT 20/M01 A2981 RMK A01 T01971010  RH  025%=      5-min Rain = 0
KPD1 200020Z 17011KT 20/M01 A2981 RMK A01 T01981010  RH  025%=      5-min Rain = 0
KPD1 200021Z 17009KT 20/M01 A2981 RMK A01 T01981010  RH  025%=      5-min Rain = 0
KPD1 200022Z 17011KT 20/M01 A2981 RMK A01 T01971010  RH  025%=      5-min Rain = 0
KPD1 200023Z 17011KT 20/M01 A2981 RMK A01 T01971010  RH  025%=      5-min Rain = 0
KPD1 200024Z 16009KT 20/M01 A2981 RMK A01 T01971010  RH  025%=      5-min Rain = 0
KPD1 200025Z 17011KT 20/M01 A2981 RMK A01 T01971009  RH  025%=      5-min Rain = 0
KPD1 200026Z 16010KT 20/M01 A2981 RMK A01 T01961009  RH  025%=      5-min Rain = 0
KPD1 200027Z 17009KT 20/M01 A2981 RMK A01 T01951009  RH  025%=      5-min Rain = 0
KPD1 200028Z 17010KT 20/M01 A2981 RMK A01 T01951009  RH  025%=      5-min Rain = 0
KPD1 200029Z 16010KT 19/M01 A2981 RMK A01 T01941010  RH  025%=      5-min Rain = 0
KPD1 200030Z 17011KT 19/M01 A2981 RMK A01 T01941009  RH  025%=      5-min Rain = 0
KPD1 200031Z 17010KT 19/M01 A2981 RMK A01 T01941009  RH  025%=      5-min Rain = 0
KPD1 200032Z 17011KT 19/M01 A2981 RMK A01 T01941009  RH  025%=      5-min Rain = 0
KPD1 200033Z 17010G16KT 19/M01 A2981 RMK A01 T01941010  RH  025%=      5-min Rain = 0
KPD1 200034Z 17010KT 19/M01 A2981 RMK A01 T01941010  RH  025%=      5-min Rain = 0
KPD1 200035Z 17011KT 19/M01 A2981 RMK A01 T01941010  RH  025%=      5-min Rain = 0
KPD1 200036Z 17012KT 19/M01 A2981 RMK A01 T01941010  RH  025%=      5-min Rain = 0
KPD1 200037Z 17013KT 19/M01 A2981 RMK A01 T01941010  RH  025%=      5-min Rain = 0
KPD1 200038Z 17013G18KT 20/M01 A2981 RMK A01 T01951010  RH  025%=      5-min Rain = 0
KPD1 200039Z 17012KT 20/M01 A2981 RMK A01 T01951010  RH  025%=      5-min Rain = 0
KPD1 200040Z 17011KT 20/M01 A2981 RMK A01 T01951010  RH  025%=      5-min Rain = 0
KPD1 200041Z 16010KT 19/M01 A2981 RMK A01 T01941010  RH  025%=      5-min Rain = 0
KPD1 200042Z 17010KT 19/M01 A2981 RMK A01 T01931010  RH  025%=      5-min Rain = 0
KPD1 200043Z 17008KT 19/M01 A2981 RMK A01 T01931010  RH  025%=      5-min Rain = 0
KPD1 200044Z 17010KT 19/M01 A2981 RMK A01 T01911010  RH  026%=      5-min Rain = 0
KPD1 200045Z 17010G15KT 19/M01 A2981 RMK A01 T01901010  RH  026%=      5-min Rain = 0
KPD1 200046Z 17011KT 19/M01 A2981 RMK A01 T01901010  RH  026%=      5-min Rain = 0
KPD1 200047Z 16011KT 19/M01 A2981 RMK A01 T01891010  RH  026%=      5-min Rain = 0
KPD1 200048Z 17012KT 19/M01 A2981 RMK A01 T01891010  RH  026%=      5-min Rain = 0
KPD1 200049Z 17012KT 19/M01 A2981 RMK A01 T01901010  RH  026%=      5-min Rain = 0
KPD1 200050Z 16009KT 19/M01 A2981 RMK A01 T01901010  RH  026%=      5-min Rain = 0
KPD1 200051Z 17010KT 19/M01 A2981 RMK A01 T01901010  RH  026%=      5-min Rain = 0
KPD1 200052Z 17011KT 19/M01 A2981 RMK A01 T01891010  RH  026%=      5-min Rain = 0
KPD1 200053Z 17012KT 19/M01 A2981 RMK A01 T01891010  RH  026%=      5-min Rain = 0
KPD1 200054Z 16012KT 19/M01 A2981 RMK A01 T01881010  RH  026%=      5-min Rain = 0
KPD1 200055Z 16014KT 19/M01 A2981 RMK A01 T01881010  RH  026%=      5-min Rain = 0
KPD1 200056Z 17013KT 19/M01 A2981 RMK A01 T01891010  RH  026%=      5-min Rain = 0
KPD1 200057Z 16014KT 19/M01 A2981 RMK A01 T01891010  RH  026%=      5-min Rain = 0
KPD1 200058Z 17013KT 19/M01 A2981 RMK A01 T01891010  RH  026%=      5-min Rain = 0
KPD1 200059Z 16012KT 19/M01 A2981 RMK A01 T01891010  RH  026%=      5-min Rain = 0
KPD1 200100Z 17013G18KT 19/M01 A2981 RMK A01 T01891010  RH  026%=      5-min Rain = 0
KPD1 200101Z 17014KT 19/M01 A2981 RMK A01 T01891009  RH  026%=      5-min Rain = 0
KPD1 200102Z 17012KT 19/M01 A2981 RMK A01 T01891009  RH  026%=      5-min Rain = 0
KPD1 200103Z 17011G17KT 19/M01 A2981 RMK A01 T01891008  RH  026%=      5-min Rain = 0
KPD1 200104Z 17011KT 19/M01 A2981 RMK A01 T01881009  RH  026%=      5-min Rain = 0
KPD1 200105Z 17014KT 19/M01 A2981 RMK A01 T01871008  RH  027%=      5-min Rain = 0
KPD1 200106Z 17013KT 19/M01 A2981 RMK A01 T01871007  RH  027%=      5-min Rain = 0
KPD1 200107Z 16010KT 19/M01 A2981 RMK A01 T01871007  RH  027%=      5-min Rain = 0
KPD1 200108Z 17011KT 19/M01 A2981 RMK A01 T01871006  RH  027%=      5-min Rain = 0
KPD1 200109Z 16013KT 19/M01 A2981 RMK A01 T01861007  RH  027%=      5-min Rain = 0
KPD1 200110Z 17011KT 19/M01 A2981 RMK A01 T01861006  RH  027%=      5-min Rain = 0
KPD1 200111Z 16010KT 19/M01 A2981 RMK A01 T01861006  RH  027%=      5-min Rain = 0
KPD1 200112Z 17012KT 19/M01 A2981 RMK A01 T01851006  RH  028%=      5-min Rain = 0
KPD1 200113Z 17011KT 19/M01 A2981 RMK A01 T01851005  RH  028%=      5-min Rain = 0
KPD1 200114Z 17011KT 18/M01 A2981 RMK A01 T01841005  RH  028%=      5-min Rain = 0
KPD1 200115Z 16010KT 18/M01 A2981 RMK A01 T01841005  RH  028%=      5-min Rain = 0
KPD1 200116Z 16011KT 18/M00 A2981 RMK A01 T01831004  RH  028%=      5-min Rain = 0
KPD1 200117Z 16009KT 18/M00 A2981 RMK A01 T01831004  RH  028%=      5-min Rain = 0
KPD1 200118Z 17011KT 18/M00 A2981 RMK A01 T01821004  RH  028%=      5-min Rain = 0
KPD1 200119Z 16011KT 18/M00 A2981 RMK A01 T01821004  RH  028%=      5-min Rain = 0
KPD1 200120Z 16011KT 18/M00 A2981 RMK A01 T01821004  RH  028%=      5-min Rain = 0
KPD1 200121Z 16011KT 18/M00 A2981 RMK A01 T01821004  RH  029%=      5-min Rain = 0
KPD1 200122Z 16012KT 18/M00 A2981 RMK A01 T01821004  RH  029%=      5-min Rain = 0
KPD1 200123Z 16012KT 18/M00 A2981 RMK A01 T01821003  RH  029%=      5-min Rain = 0
KPD1 200124Z 16010KT 18/M00 A2981 RMK A01 T01821002  RH  029%=      5-min Rain = 0
KPD1 200125Z 16010KT 18/M00 A2981 RMK A01 T01821002  RH  029%=      5-min Rain = 0
KPD1 200126Z 17010KT 18/M00 A2981 RMK A01 T01821002  RH  029%=      5-min Rain = 0
KPD1 200127Z 16009KT 18/M00 A2981 RMK A01 T01811003  RH  029%=      5-min Rain = 0
KPD1 200128Z 17011KT 18/M00 A2981 RMK A01 T01801002  RH  029%=      5-min Rain = 0
KPD1 200129Z 17010KT 18/M00 A2981 RMK A01 T01801002  RH  029%=      5-min Rain = 0
KPD1 200130Z 17009KT 18/M00 A2981 RMK A01 T01801001  RH  029%=      5-min Rain = 0
KPD1 200131Z 17010KT 18/M00 A2981 RMK A01 T01801001  RH  030%=      5-min Rain = 0
KPD1 200132Z 15010KT 18/M00 A2981 RMK A01 T01801001  RH  030%=      5-min Rain = 0
KPD1 200133Z 16009KT 18/00 A2981 RMK A01 T017900-0  RH  030%=      5-min Rain = 0
KPD1 200134Z 16011KT 18/00 A2981 RMK A01 T017900-0  RH  030%=      5-min Rain = 0
KPD1 200135Z 16011KT 18/00 A2981 RMK A01 T01790000  RH  030%=      5-min Rain = 0
KPD1 200136Z 16011KT 18/00 A2981 RMK A01 T01790000  RH  030%=      5-min Rain = 0
KPD1 200137Z 16010KT 18/00 A2981 RMK A01 T01800000  RH  030%=      5-min Rain = 0
KPD1 200138Z 16010KT 18/00 A2981 RMK A01 T01800001  RH  030%=      5-min Rain = 0
KPD1 200139Z 16008KT 18/00 A2981 RMK A01 T01800001  RH  030%=      5-min Rain = 0
KPD1 200140Z 17009KT 18/00 A2981 RMK A01 T01800001  RH  030%=      5-min Rain = 0
KPD1 200141Z 17010KT 18/00 A2981 RMK A01 T01790000  RH  030%=      5-min Rain = 0
KPD1 200142Z 17008KT 18/00 A2981 RMK A01 T01780001  RH  030%=      5-min Rain = 0
KPD1 200143Z 17007KT 18/00 A2981 RMK A01 T01780001  RH  030%=      5-min Rain = 0
KPD1 200144Z 17010KT 18/00 A2981 RMK A01 T01770001  RH  030%=      5-min Rain = 0
KPD1 200145Z 16008KT 18/00 A2981 RMK A01 T01770001  RH  030%=      5-min Rain = 0
KPD1 200146Z 18008KT 18/00 A2981 RMK A01 T01770002  RH  031%=      5-min Rain = 0
KPD1 200147Z 17012KT 18/00 A2981 RMK A01 T01770002  RH  031%=      5-min Rain = 0
KPD1 200148Z 16011KT 18/00 A2981 RMK A01 T01770002  RH  031%=      5-min Rain = 0
KPD1 200149Z 17009KT 18/00 A2981 RMK A01 T01780003  RH  031%=      5-min Rain = 0
KPD1 200150Z 16009KT 18/00 A2981 RMK A01 T01780003  RH  031%=      5-min Rain = 0
KPD1 200151Z 17009KT 18/00 A2981 RMK A01 T01780003  RH  031%=      5-min Rain = 0
KPD1 200152Z 17009KT 18/00 A2981 RMK A01 T01780003  RH  031%=      5-min Rain = 0
KPD1 200153Z 17011KT 18/00 A2981 RMK A01 T01780002  RH  031%=      5-min Rain = 0
KPD1 200154Z 17009KT 18/00 A2981 RMK A01 T01770003  RH  031%=      5-min Rain = 0
KPD1 200155Z 16011KT 18/00 A2981 RMK A01 T01770003  RH  031%=      5-min Rain = 0
KPD1 200156Z 17009KT 18/00 A2981 RMK A01 T01770003  RH  031%=      5-min Rain = 0
KPD1 200157Z 17008KT 18/00 A2981 RMK A01 T01770004  RH  031%=      5-min Rain = 0
KPD1 200158Z 16009KT 18/00 A2981 RMK A01 T01770003  RH  031%=      5-min Rain = 0
KPD1 200159Z 17009KT 18/00 A2981 RMK A01 T01760003  RH  031%=      5-min Rain = 0
KPD1 200200Z 17008KT 18/00 A2981 RMK A01 T01760003  RH  031%=      5-min Rain = 0
KPD1 200201Z 17010KT 18/00 A2981 RMK A01 T01760003  RH  031%=      5-min Rain = 0
KPD1 200202Z 17011KT 18/00 A2981 RMK A01 T01760003  RH  031%=      5-min Rain = 0
KPD1 200203Z 17010KT 18/00 A2981 RMK A01 T01760003  RH  031%=      5-min Rain = 0
KPD1 200204Z 17010KT 18/00 A2981 RMK A01 T01750003  RH  031%=      5-min Rain = 0
KPD1 200205Z 17008KT 18/00 A2981 RMK A01 T01760003  RH  031%=      5-min Rain = 0
KPD1 200206Z 18008G13KT 18/00 A2981 RMK A01 T01750003  RH  031%=      5-min Rain = 0
KPD1 200207Z 17011KT 17/00 A2981 RMK A01 T01740003  RH  031%=      5-min Rain = 0
KPD1 200208Z 17010KT 17/00 A2981 RMK A01 T01740004  RH  032%=      5-min Rain = 0
KPD1 200209Z 16010KT 17/00 A2981 RMK A01 T01740004  RH  032%=      5-min Rain = 0
KPD1 200210Z 17009KT 17/00 A2981 RMK A01 T01740004  RH  032%=      5-min Rain = 0
KPD1 200211Z 18010KT 17/00 A2981 RMK A01 T01740004  RH  032%=      5-min Rain = 0
KPD1 200212Z 17007KT 17/00 A2981 RMK A01 T01740004  RH  032%=      5-min Rain = 0
KPD1 200213Z 17009KT 17/00 A2981 RMK A01 T01730004  RH  032%=      5-min Rain = 0
KPD1 200214Z 17009KT 17/00 A2981 RMK A01 T01730004  RH  032%=      5-min Rain = 0
KPD1 200215Z 17009KT 17/00 A2981 RMK A01 T01720004  RH  032%=      5-min Rain = 0
KPD1 200216Z 16009KT 17/00 A2981 RMK A01 T01720004  RH  032%=      5-min Rain = 0
KPD1 200217Z 17010KT 17/01 A2981 RMK A01 T01730005  RH  032%=      5-min Rain = 0
KPD1 200218Z 17013G19KT 17/01 A2981 RMK A01 T01730005  RH  032%=      5-min Rain = 0
KPD1 200219Z 17012KT 17/00 A2981 RMK A01 T01720004  RH  032%=      5-min Rain = 0
KPD1 200220Z 16013KT 17/00 A2981 RMK A01 T01730004  RH  032%=      5-min Rain = 0
KPD1 200221Z 17010KT 17/00 A2981 RMK A01 T01730003  RH  032%=      5-min Rain = 0
KPD1 200222Z 16010KT 17/00 A2981 RMK A01 T01730003  RH  032%=      5-min Rain = 0
KPD1 200223Z 17010KT 17/00 A2981 RMK A01 T01720002  RH  032%=      5-min Rain = 0
KPD1 200224Z 17010G15KT 17/00 A2981 RMK A01 T01720003  RH  032%=      5-min Rain = 0
KPD1 200225Z 16009KT 17/00 A2981 RMK A01 T01710003  RH  032%=      5-min Rain = 0
KPD1 200226Z 16010G18KT 17/00 A2981 RMK A01 T01710002  RH  032%=      5-min Rain = 0
KPD1 200227Z 17014KT 17/00 A2981 RMK A01 T01710002  RH  032%=      5-min Rain = 0
KPD1 200228Z 17010KT 17/00 A2981 RMK A01 T01720001  RH  032%=      5-min Rain = 0
KPD1 200229Z 17009KT 17/00 A2981 RMK A01 T01730002  RH  031%=      5-min Rain = 0
KPD1 200230Z 16010KT 17/00 A2981 RMK A01 T01720002  RH  031%=      5-min Rain = 0
KPD1 200231Z 17010KT 17/00 A2981 RMK A01 T01710001  RH  032%=      5-min Rain = 0
KPD1 200232Z 16013KT 17/00 A2981 RMK A01 T01710001  RH  032%=      5-min Rain = 0
KPD1 200233Z 17012KT 17/00 A2981 RMK A01 T01710001  RH  031%=      5-min Rain = 0
KPD1 200234Z 16012KT 17/00 A2981 RMK A01 T01710000  RH  031%=      5-min Rain = 0
KPD1 200235Z 16011KT 17/00 A2981 RMK A01 T01710000  RH  031%=      5-min Rain = 0
KPD1 200236Z 16010KT 17/00 A2981 RMK A01 T01710001  RH  032%=      5-min Rain = 0
KPD1 200237Z 16009KT 17/00 A2981 RMK A01 T01700001  RH  032%=      5-min Rain = 0
KPD1 200238Z 17008KT 17/00 A2981 RMK A01 T01700001  RH  032%=      5-min Rain = 0
KPD1 200239Z 17010KT 17/00 A2981 RMK A01 T01690001  RH  032%=      5-min Rain = 0
KPD1 200240Z 16008KT 17/00 A2981 RMK A01 T01690001  RH  032%=      5-min Rain = 0
KPD1 200241Z 17008KT 17/00 A2981 RMK A01 T01680001  RH  032%=      5-min Rain = 0
KPD1 200242Z 17008KT 17/00 A2981 RMK A01 T01680002  RH  032%=      5-min Rain = 0
KPD1 200243Z 17010G15KT 17/00 A2981 RMK A01 T01670002  RH  033%=      5-min Rain = 0
KPD1 200244Z 17009KT 17/00 A2981 RMK A01 T01670003  RH  033%=      5-min Rain = 0
KPD1 200245Z 16009KT 17/00 A2981 RMK A01 T01670003  RH  033%=      5-min Rain = 0
KPD1 200246Z 17010KT 17/00 A2981 RMK A01 T01670003  RH  033%=      5-min Rain = 0
KPD1 200247Z 17006KT 17/00 A2981 RMK A01 T01660003  RH  033%=      5-min Rain = 0
KPD1 200248Z 17009KT 17/00 A2981 RMK A01 T01670003  RH  033%=      5-min Rain = 0
KPD1 200249Z 16011KT 17/00 A2981 RMK A01 T01660003  RH  033%=      5-min Rain = 0
KPD1 200250Z 16011KT 17/00 A2981 RMK A01 T01670003  RH  033%=      5-min Rain = 0
KPD1 200251Z 17009KT 17/00 A2981 RMK A01 T01670003  RH  033%=      5-min Rain = 0
KPD1 200252Z 17008KT 17/00 A2981 RMK A01 T01670004  RH  033%=      5-min Rain = 0
KPD1 200253Z 18008KT 17/00 A2981 RMK A01 T01660003  RH  033%=      5-min Rain = 0
KPD1 200254Z 17009KT 17/00 A2981 RMK A01 T01660002  RH  033%=      5-min Rain = 0
KPD1 200255Z 17007KT 17/00 A2981 RMK A01 T01660003  RH  033%=      5-min Rain = 0
KPD1 200256Z 18009KT 17/00 A2981 RMK A01 T01650003  RH  033%=      5-min Rain = 0
KPD1 200257Z 18010G16KT 17/00 A2981 RMK A01 T01650002  RH  033%=      5-min Rain = 0
KPD1 200258Z 17009G14KT 17/00 A2981 RMK A01 T01660002  RH  033%=      5-min Rain = 0
KPD1 200259Z 16009KT 17/00 A2981 RMK A01 T01660002  RH  033%=      5-min Rain = 0
KPD1 200300Z 17009KT 17/00 A2981 RMK A01 T01660002  RH  033%=      5-min Rain = 0
KPD1 200301Z 16009KT 17/00 A2981 RMK A01 T01650002  RH  033%=      5-min Rain = 0
KPD1 200302Z 16008KT 17/00 A2981 RMK A01 T01650002  RH  033%=      5-min Rain = 0
KPD1 200303Z 17009KT 17/00 A2981 RMK A01 T01650002  RH  033%=      5-min Rain = 0
KPD1 200304Z 16008KT 16/00 A2981 RMK A01 T01640002  RH  033%=      5-min Rain = 0
KPD1 200305Z 16007KT 16/00 A2981 RMK A01 T01640001  RH  033%=      5-min Rain = 0
KPD1 200306Z 17010KT 16/00 A2981 RMK A01 T01630001  RH  033%=      5-min Rain = 0
KPD1 200307Z 18007KT 16/00 A2981 RMK A01 T01630001  RH  033%=      5-min Rain = 0
KPD1 200308Z 17006KT 16/00 A2981 RMK A01 T01620002  RH  034%=      5-min Rain = 0
KPD1 200309Z 17008KT 16/00 A2981 RMK A01 T01600001  RH  034%=      5-min Rain = 0
KPD1 200310Z 17007KT 16/00 A2981 RMK A01 T01600000  RH  034%=      5-min Rain = 0
KPD1 200311Z 18010KT 16/00 A2981 RMK A01 T01600001  RH  034%=      5-min Rain = 0
KPD1 200312Z 17012KT 16/00 A2981 RMK A01 T015900-0  RH  034%=      5-min Rain = 0
KPD1 200313Z 19011KT 16/00 A2981 RMK A01 T016100-0  RH  033%=      5-min Rain = 0
KPD1 200314Z 18010KT 16/00 A2981 RMK A01 T01610000  RH  033%=      5-min Rain = 0
KPD1 200315Z 17011KT 16/00 A2981 RMK A01 T01600000  RH  034%=      5-min Rain = 0
KPD1 200316Z 18011KT 16/00 A2981 RMK A01 T01600000  RH  034%=      5-min Rain = 0
KPD1 200317Z 17008KT 16/00 A2981 RMK A01 T01600000  RH  034%=      5-min Rain = 0
KPD1 200318Z 17010KT 16/00 A2981 RMK A01 T01590000  RH  034%=      5-min Rain = 0
KPD1 200319Z 17011KT 16/00 A2981 RMK A01 T015900-0  RH  034%=      5-min Rain = 0
KPD1 200320Z 18008KT 16/00 A2981 RMK A01 T015900-0  RH  034%=      5-min Rain = 0
KPD1 200321Z 18011KT 16/00 A2981 RMK A01 T01590000  RH  034%=      5-min Rain = 0
KPD1 200322Z 17009KT 16/00 A2981 RMK A01 T01580000  RH  034%=      5-min Rain = 0
KPD1 200323Z 18011KT 16/00 A2981 RMK A01 T015700-0  RH  034%=      5-min Rain = 0
KPD1 200324Z 18009KT 16/M00 A2981 RMK A01 T01571001  RH  034%=      5-min Rain = 0
KPD1 200325Z 18008KT 16/00 A2981 RMK A01 T015700-0  RH  034%=      5-min Rain = 0
KPD1 200326Z 19010KT 16/00 A2981 RMK A01 T015700-0  RH  034%=      5-min Rain = 0
KPD1 200327Z 18011KT 16/00 A2981 RMK A01 T015600-0  RH  035%=      5-min Rain = 0
KPD1 200328Z 18010G16KT 16/00 A2981 RMK A01 T01550000  RH  035%=      5-min Rain = 0
KPD1 200329Z 18013KT 16/00 A2981 RMK A01 T01550000  RH  035%=      5-min Rain = 0
KPD1 200330Z 17010KT 16/00 A2981 RMK A01 T01560000  RH  035%=      5-min Rain = 0
KPD1 200331Z 19010G16KT 16/00 A2981 RMK A01 T01570000  RH  034%=      5-min Rain = 0
KPD1 200332Z 18009KT 16/00 A2981 RMK A01 T015600-0  RH  034%=      5-min Rain = 0
KPD1 200333Z 18009KT 16/00 A2981 RMK A01 T015600-0  RH  035%=      5-min Rain = 0
KPD1 200334Z 19013G19KT 16/00 A2981 RMK A01 T01550000  RH  035%=      5-min Rain = 0
KPD1 200335Z 18013G18KT 16/00 A2981 RMK A01 T015500-0  RH  035%=      5-min Rain = 0
KPD1 200336Z 19010KT 16/00 A2981 RMK A01 T015600-0  RH  034%=      5-min Rain = 0
KPD1 200337Z 19010KT 16/00 A2981 RMK A01 T015600-0  RH  034%=      5-min Rain = 0
KPD1 200338Z 18008KT 16/00 A2981 RMK A01 T015500-0  RH  035%=      5-min Rain = 0
KPD1 200339Z 19011KT 15/M00 A2981 RMK A01 T01541001  RH  035%=      5-min Rain = 0
KPD1 200340Z 19010KT 15/M00 A2981 RMK A01 T01521001  RH  035%=      5-min Rain = 0
KPD1 200341Z 18011KT 15/00 A2981 RMK A01 T015200-0  RH  035%=      5-min Rain = 0
KPD1 200342Z 19009G15KT 15/00 A2981 RMK A01 T015200-0  RH  035%=      5-min Rain = 0
KPD1 200343Z 19009G15KT 15/M00 A2981 RMK A01 T01521001  RH  035%=      5-min Rain = 0
KPD1 200344Z 19011KT 15/M00 A2981 RMK A01 T01511001  RH  035%=      5-min Rain = 0
KPD1 200345Z 19011G20KT 15/M00 A2981 RMK A01 T01511001  RH  035%=      5-min Rain = 0
KPD1 200346Z 18012KT 15/M00 A2981 RMK A01 T01511001  RH  035%=      5-min Rain = 0
KPD1 200347Z 18012KT 15/M00 A2981 RMK A01 T01511002  RH  035%=      5-min Rain = 0
KPD1 200348Z 19012KT 15/M00 A2981 RMK A01 T01521002  RH  035%=      5-min Rain = 0
KPD1 200349Z 20013G18KT 15/M00 A2981 RMK A01 T01521002  RH  035%=      5-min Rain = 0
KPD1 200350Z 19012KT 15/M00 A2981 RMK A01 T01521002  RH  035%=      5-min Rain = 0
KPD1 200351Z 19009G14KT 15/M00 A2981 RMK A01 T01521001  RH  035%=      5-min Rain = 0
KPD1 200352Z 19010KT 15/M00 A2981 RMK A01 T01521001  RH  035%=      5-min Rain = 0
KPD1 200353Z 19014G23KT 15/M00 A2981 RMK A01 T01511002  RH  035%=      5-min Rain = 0
KPD1 200354Z 19013G18KT 15/M00 A2981 RMK A01 T01511002  RH  035%=      5-min Rain = 0
KPD1 200355Z 19014G19KT 15/M00 A2981 RMK A01 T01521002  RH  035%=      5-min Rain = 0
KPD1 200356Z 20009KT 15/M00 A2981 RMK A01 T01531002  RH  035%=      5-min Rain = 0
KPD1 200357Z 19014G19KT 15/M00 A2981 RMK A01 T01531002  RH  035%=      5-min Rain = 0
KPD1 200358Z 20014KT 15/M00 A2981 RMK A01 T01541002  RH  034%=      5-min Rain = 0
KPD1 200359Z 20012KT 15/M00 A2981 RMK A01 T01541003  RH  034%=      5-min Rain = 0
KPD1 200400Z 20011G16KT 15/M00 A2981 RMK A01 T01541003  RH  034%=      5-min Rain = 0
KPD1 200401Z 19011KT 16/M00 A2981 RMK A01 T01551004  RH  034%=      5-min Rain = 0
KPD1 200402Z 19012G18KT 15/M00 A2981 RMK A01 T01541004  RH  034%=      5-min Rain = 0
KPD1 200403Z 20012KT 15/M00 A2981 RMK A01 T01541004  RH  034%=      5-min Rain = 0
KPD1 200404Z 19014KT 15/M00 A2981 RMK A01 T01541004  RH  034%=      5-min Rain = 0
KPD1 200405Z 20015G20KT 15/M00 A2982 RMK A01 T01541004  RH  034%=      5-min Rain = 0
KPD1 200406Z 20011G16KT 15/M00 A2981 RMK A01 T01541004  RH  034%=      5-min Rain = 0
KPD1 200407Z 19011KT 15/M01 A2981 RMK A01 T01531005  RH  034%=      5-min Rain = 0
KPD1 200408Z 20012KT 15/M01 A2981 RMK A01 T01521005  RH  034%=      5-min Rain = 0
KPD1 200409Z 20010G16KT 15/M01 A2981 RMK A01 T01511005  RH  034%=      5-min Rain = 0
KPD1 200410Z 19013KT 15/M01 A2981 RMK A01 T01501005  RH  035%=      5-min Rain = 0
KPD1 200411Z 20014KT 15/M01 A2981 RMK A01 T01491005  RH  035%=      5-min Rain = 0
KPD1 200412Z 20011G16KT 15/M01 A2981 RMK A01 T01491005  RH  035%=      5-min Rain = 0
KPD1 200413Z 20010KT 15/M01 A2981 RMK A01 T01481005  RH  035%=      5-min Rain = 0
KPD1 200414Z 19012KT 15/M01 A2981 RMK A01 T01461006  RH  035%=      5-min Rain = 0
KPD1 200415Z 20011KT 14/M01 A2981 RMK A01 T01441006  RH  036%=      5-min Rain = 0
KPD1 200416Z 19012KT 14/M01 A2981 RMK A01 T01431006  RH  036%=      5-min Rain = 0
KPD1 200417Z 20013KT 14/M01 A2981 RMK A01 T01431005  RH  036%=      5-min Rain = 0
KPD1 200418Z 19012G17KT 14/M01 A2981 RMK A01 T01411006  RH  036%=      5-min Rain = 0
KPD1 200419Z 20011KT 14/M01 A2981 RMK A01 T01411005  RH  036%=      5-min Rain = 0
KPD1 200420Z 20013G19KT 14/M01 A2981 RMK A01 T01411006  RH  036%=      5-min Rain = 0
KPD1 200421Z 20011KT 14/M01 A2981 RMK A01 T01411005  RH  036%=      5-min Rain = 0
KPD1 200422Z 20012KT 14/M01 A2981 RMK A01 T01421006  RH  036%=      5-min Rain = 0
KPD1 200423Z 21012KT 14/M01 A2981 RMK A01 T01411006  RH  036%=      5-min Rain = 0
KPD1 200424Z 19011KT 14/M01 A2981 RMK A01 T01401007  RH  036%=      5-min Rain = 0
KPD1 200425Z 20010KT 14/M01 A2981 RMK A01 T01391007  RH  037%=      5-min Rain = 0
KPD1 200426Z 20010KT 14/M01 A2981 RMK A01 T01381008  RH  037%=      5-min Rain = 0
KPD1 200427Z 20011KT 14/M01 A2981 RMK A01 T01371008  RH  037%=      5-min Rain = 0
KPD1 200428Z 20010G15KT 14/M01 A2981 RMK A01 T01361009  RH  037%=      5-min Rain = 0
KPD1 200429Z 20012KT 14/M01 A2981 RMK A01 T01371008  RH  037%=      5-min Rain = 0
KPD1 200430Z 20012KT 14/M01 A2981 RMK A01 T01371008  RH  037%=      5-min Rain = 0
KPD1 200431Z 20011KT 14/M01 A2981 RMK A01 T01371008  RH  037%=      5-min Rain = 0
KPD1 200432Z 19011KT 14/M01 A2981 RMK A01 T01371008  RH  037%=      5-min Rain = 0
KPD1 200433Z 20010KT 14/M01 A2981 RMK A01 T01371008  RH  037%=      5-min Rain = 0
KPD1 200434Z 20013KT 14/M01 A2981 RMK A01 T01371009  RH  037%=      5-min Rain = 0
KPD1 200435Z 20012KT 14/M01 A2981 RMK A01 T01381009  RH  036%=      5-min Rain = 0
KPD1 200436Z 20012KT 14/M01 A2981 RMK A01 T01371009  RH  036%=      5-min Rain = 0
KPD1 200437Z 20009G14KT 14/M01 A2981 RMK A01 T01371009  RH  036%=      5-min Rain = 0
KPD1 200438Z 21010G15KT 14/M01 A2981 RMK A01 T01361010  RH  037%=      5-min Rain = 0
KPD1 200439Z 20013KT 14/M01 A2981 RMK A01 T01351010  RH  037%=      5-min Rain = 0
KPD1 200440Z 20013KT 14/M01 A298 RMK A01 T01351010  RH  037%=      5-min Rain = 0
KPD1 200441Z 20015KT 14/M01 A298 RMK A01 T01361010  RH  036%=      5-min Rain = 0
KPD1 200442Z 20012KT 14/M01 A2981 RMK A01 T01371010  RH  036%=      5-min Rain = 0
KPD1 200443Z 20011KT 14/M01 A2981 RMK A01 T01371010  RH  036%=      5-min Rain = 0
KPD1 200444Z 20011KT 14/M01 A2981 RMK A01 T01371010  RH  036%=      5-min Rain = 0
KPD1 200445Z 19011KT 14/M01 A2981 RMK A01 T01351011  RH  036%=      5-min Rain = 0
KPD1 200446Z 20013KT 14/M01 A2981 RMK A01 T01351010  RH  037%=      5-min Rain = 0
KPD1 200447Z 20014KT 14/M01 A2981 RMK A01 T01351010  RH  037%=      5-min Rain = 0
KPD1 200448Z 20012G20KT 14/M01 A2981 RMK A01 T01351010  RH  037%=      5-min Rain = 0
KPD1 200449Z 20012KT 14/M01 A2981 RMK A01 T01361010  RH  036%=      5-min Rain = 0
KPD1 200450Z 20013KT 14/M01 A2981 RMK A01 T01371010  RH  036%=      5-min Rain = 0
KPD1 200451Z 20013KT 14/M01 A2981 RMK A01 T01381010  RH  036%=      5-min Rain = 0
KPD1 200452Z 20014KT 14/M01 A2981 RMK A01 T01381010  RH  036%=      5-min Rain = 0
KPD1 200453Z 19014G19KT 14/M01 A2981 RMK A01 T01381010  RH  036%=      5-min Rain = 0
KPD1 200454Z 20013KT 14/M01 A2981 RMK A01 T01401010  RH  036%=      5-min Rain = 0
KPD1 200455Z 20014G19KT 14/M01 A2981 RMK A01 T01401010  RH  036%=      5-min Rain = 0
KPD1 200456Z 20014G19KT 14/M01 A298 RMK A01 T01411009  RH  035%=      5-min Rain = 0
KPD1 200457Z 20011KT 14/M01 A298 RMK A01 T01421009  RH  035%=      5-min Rain = 0
KPD1 200458Z 19012G17KT 14/M01 A298 RMK A01 T01431009  RH  035%=      5-min Rain = 0
KPD1 200459Z 19015G20KT 14/M01 A298 RMK A01 T01441009  RH  035%=      5-min Rain = 0
KPD1 200500Z 20012G18KT 15/M01 A298 RMK A01 T01461009  RH  035%=      5-min Rain = 0
KPD1 200501Z 19014G19KT 15/M01 A298 RMK A01 T01481008  RH  034%=      5-min Rain = 0
KPD1 200502Z 19014KT 15/M01 A298 RMK A01 T01481008  RH  034%=      5-min Rain = 0
KPD1 200503Z 19013G18KT 15/M01 A298 RMK A01 T01491009  RH  034%=      5-min Rain = 0
KPD1 200504Z 19013G18KT 15/M01 A298 RMK A01 T01511009  RH  033%=      5-min Rain = 0
KPD1 200505Z 20013KT 15/M01 A298 RMK A01 T01511009  RH  033%=      5-min Rain = 0
KPD1 200506Z 20012KT 15/M01 A298 RMK A01 T01501009  RH  034%=      5-min Rain = 0
KPD1 200507Z 19014KT 15/M01 A298 RMK A01 T01491009  RH  034%=      5-min Rain = 0
KPD1 200508Z 20014KT 15/M01 A298 RMK A01 T01491009  RH  034%=      5-min Rain = 0
KPD1 200509Z 20016G21KT 15/M01 A298 RMK A01 T01491009  RH  034%=      5-min Rain = 0
KPD1 200510Z 20017G22KT 15/M01 A298 RMK A01 T01511010  RH  033%=      5-min Rain = 0
KPD1 200511Z 21015G21KT 15/M01 A298 RMK A01 T01521010  RH  033%=      5-min Rain = 0
KPD1 200512Z 20015KT 15/M01 A298 RMK A01 T01511010  RH  033%=      5-min Rain = 0
KPD1 200513Z 20016KT 15/M01 A298 RMK A01 T01501011  RH  033%=      5-min Rain = 0
KPD1 200514Z 20015KT 15/M01 A298 RMK A01 T01511012  RH  033%=      5-min Rain = 0
KPD1 200515Z 20016G21KT 15/M01 A298 RMK A01 T01511012  RH  033%=      5-min Rain = 0
KPD1 200516Z 19016G22KT 15/M01 A298 RMK A01 T01521013  RH  032%=      5-min Rain = 0
KPD1 200517Z 21015G21KT 15/M01 A298 RMK A01 T01541013  RH  032%=      5-min Rain = 0
KPD1 200518Z 20012G17KT 15/M01 A298 RMK A01 T01541013  RH  032%=      5-min Rain = 0
KPD1 200519Z 20014G19KT 15/M01 A298 RMK A01 T01541014  RH  032%=      5-min Rain = 0
KPD1 200520Z 20014KT 15/M01 A298 RMK A01 T01541014  RH  032%=      5-min Rain = 0
KPD1 200521Z 20015G21KT 15/M01 A298 RMK A01 T01541014  RH  031%=      5-min Rain = 0
KPD1 200522Z 21015G20KT 16/M01 A298 RMK A01 T01551014  RH  031%=      5-min Rain = 0
KPD1 200523Z 20017KT 16/M02 A298 RMK A01 T01551015  RH  031%=      5-min Rain = 0
KPD1 200524Z 20017G26KT 16/M02 A298 RMK A01 T01561015  RH  031%=      5-min Rain = 0
KPD1 200525Z 20015G22KT 16/M02 A298 RMK A01 T01561015  RH  031%=      5-min Rain = 0
KPD1 200526Z 20014G21KT 16/M02 A298 RMK A01 T01561015  RH  031%=      5-min Rain = 0
KPD1 200527Z 20015G20KT 16/M02 A298 RMK A01 T01561015  RH  031%=      5-min Rain = 0
KPD1 200528Z 21017G23KT 16/M02 A298 RMK A01 T01561016  RH  031%=      5-min Rain = 0
KPD1 200529Z 20015KT 16/M02 A298 RMK A01 T01561016  RH  031%=      5-min Rain = 0
KPD1 200530Z 20016G21KT 16/M02 A298 RMK A01 T01571016  RH  031%=      5-min Rain = 0
KPD1 200531Z 20020G25KT 16/M02 A298 RMK A01 T01571016  RH  031%=      5-min Rain = 0
KPD1 200532Z 21014G21KT 16/M02 A298 RMK A01 T01581016  RH  030%=      5-min Rain = 0
KPD1 200533Z 21015G20KT 16/M02 A298 RMK A01 T01581016  RH  030%=      5-min Rain = 0
KPD1 200534Z 21015G22KT 16/M02 A298 RMK A01 T01571016  RH  030%=      5-min Rain = 0
KPD1 200535Z 21016G24KT 16/M02 A298 RMK A01 T01551017  RH  031%=      5-min Rain = 0
KPD1 200536Z 21016G21KT 15/M02 A298 RMK A01 T01541016  RH  031%=      5-min Rain = 0
KPD1 200537Z 21016KT 15/M02 A298 RMK A01 T01531017  RH  031%=      5-min Rain = 0
KPD1 200538Z 21017KT 15/M02 A2979 RMK A01 T01531016  RH  031%=      5-min Rain = 0
KPD1 200539Z 20012KT 15/M02 A2979 RMK A01 T01521017  RH  031%=      5-min Rain = 0
KPD1 200540Z 20014KT 15/M02 A298 RMK A01 T01521016  RH  031%=      5-min Rain = 0
KPD1 200541Z 20014KT 15/M02 A298 RMK A01 T01511016  RH  032%=      5-min Rain = 0
KPD1 200542Z 20014KT 15/M02 A298 RMK A01 T01491017  RH  032%=      5-min Rain = 0
KPD1 200543Z 21017KT 15/M02 A298 RMK A01 T01481017  RH  032%=      5-min Rain = 0
KPD1 200544Z 21014KT 15/M02 A298 RMK A01 T01481016  RH  032%=      5-min Rain = 0
KPD1 200545Z 20017KT 15/M02 A298 RMK A01 T01481017  RH  032%=      5-min Rain = 0
KPD1 200546Z 21015KT 15/M02 A298 RMK A01 T01481017  RH  032%=      5-min Rain = 0
KPD1 200547Z 21014KT 15/M02 A298 RMK A01 T01471017  RH  032%=      5-min Rain = 0
KPD1 200548Z 20016KT 15/M02 A298 RMK A01 T01451017  RH  033%=      5-min Rain = 0
KPD1 200549Z 21014G20KT 14/M02 A298 RMK A01 T01441017  RH  033%=      5-min Rain = 0
KPD1 200550Z 20014KT 14/M02 A298 RMK A01 T01441017  RH  033%=      5-min Rain = 0
KPD1 200551Z 20012KT 14/M02 A298 RMK A01 T01441017  RH  033%=      5-min Rain = 0
KPD1 200552Z 20013G18KT 14/M02 A298 RMK A01 T01441017  RH  033%=      5-min Rain = 0
KPD1 200553Z 20015KT 14/M02 A298 RMK A01 T01431017  RH  033%=      5-min Rain = 0
KPD1 200554Z 20015KT 14/M02 A298 RMK A01 T01441017  RH  033%=      5-min Rain = 0
KPD1 200555Z 20016G21KT 15/M02 A298 RMK A01 T01451016  RH  033%=      5-min Rain = 0
KPD1 200556Z 20017KT 15/M02 A298 RMK A01 T01461016  RH  033%=      5-min Rain = 0
KPD1 200557Z 21015G20KT 15/M02 A298 RMK A01 T01471016  RH  033%=      5-min Rain = 0
KPD1 200558Z 20017G24KT 15/M02 A298 RMK A01 T01471016  RH  033%=      5-min Rain = 0
KPD1 200559Z 20019KT 15/M02 A298 RMK A01 T01471016  RH  032%=      5-min Rain = 0

Page generated in 0.2172 seconds.